<?xml version='1.0' encoding='UTF-8'?><gpx version="1.1" creator="JPX - https://github.com/jenetics/jpx" xmlns="http://www.topografix.com/GPX/1/1"><trk><trkseg><trkpt lat="42.1084889" lon="12.8778201"><ele>1068.0</ele><time>2026-04-04T13:33:12.797Z</time></trkpt><trkpt lat="42.1084846" lon="12.8780159"><ele>1068.0</ele><time>2026-04-04T13:33:14.798Z</time></trkpt><trkpt lat="42.1084843" lon="12.878131"><ele>1068.0</ele><time>2026-04-04T13:33:15.798Z</time></trkpt><trkpt lat="42.1084859" lon="12.8782436"><ele>1068.0</ele><time>2026-04-04T13:33:16.798Z</time></trkpt><trkpt lat="42.1084883" lon="12.878335"><ele>1068.0</ele><time>2026-04-04T13:33:17.798Z</time></trkpt><trkpt lat="42.1084992" lon="12.8784841"><ele>1071.2</ele><time>2026-04-04T13:33:19.798Z</time></trkpt><trkpt lat="42.1085261" lon="12.8785884"><ele>1074.4</ele><time>2026-04-04T13:33:21.798Z</time></trkpt><trkpt lat="42.1085636" lon="12.8787055"><ele>1077.6000000000001</ele><time>2026-04-04T13:33:24.798Z</time></trkpt><trkpt lat="42.1086249" lon="12.8788243"><ele>1080.8</ele><time>2026-04-04T13:33:26.798Z</time></trkpt><trkpt lat="42.1087266" lon="12.8789045"><ele>1084.0</ele><time>2026-04-04T13:33:28.798Z</time></trkpt><trkpt lat="42.1087983" lon="12.8789438"><ele>1084.0</ele><time>2026-04-04T13:33:29.798Z</time></trkpt><trkpt lat="42.1088691" lon="12.8789841"><ele>1084.0</ele><time>2026-04-04T13:33:30.798Z</time></trkpt><trkpt lat="42.108945" lon="12.8790118"><ele>1084.0</ele><time>2026-04-04T13:33:31.798Z</time></trkpt><trkpt lat="42.1090248" lon="12.879023"><ele>1084.0</ele><time>2026-04-04T13:33:32.798Z</time></trkpt><trkpt lat="42.1091005" lon="12.8790498"><ele>1084.0</ele><time>2026-04-04T13:33:33.798Z</time></trkpt><trkpt lat="42.1091658" lon="12.8790934"><ele>1084.0</ele><time>2026-04-04T13:33:34.798Z</time></trkpt><trkpt lat="42.1092296" lon="12.8791439"><ele>1084.0</ele><time>2026-04-04T13:33:35.798Z</time></trkpt><trkpt lat="42.1093075" lon="12.8792114"><ele>1084.0</ele><time>2026-04-04T13:33:36.798Z</time></trkpt><trkpt lat="42.1093701" lon="12.8792801"><ele>1084.0</ele><time>2026-04-04T13:33:37.797Z</time></trkpt><trkpt lat="42.1094345" lon="12.8793278"><ele>1084.0</ele><time>2026-04-04T13:33:38.798Z</time></trkpt><trkpt lat="42.1095122" lon="12.8793653"><ele>1084.0</ele><time>2026-04-04T13:33:39.798Z</time></trkpt><trkpt lat="42.1095892" lon="12.8793826"><ele>1084.0</ele><time>2026-04-04T13:33:40.798Z</time></trkpt><trkpt lat="42.1096595" lon="12.8793761"><ele>1083.6666666666665</ele><time>2026-04-04T13:33:41.798Z</time></trkpt><trkpt lat="42.1097347" lon="12.8793709"><ele>1083.3333333333333</ele><time>2026-04-04T13:33:42.798Z</time></trkpt><trkpt lat="42.1098063" lon="12.8793488"><ele>1083.0</ele><time>2026-04-04T13:33:43.798Z</time></trkpt><trkpt lat="42.1098747" lon="12.879342"><ele>1082.6666666666667</ele><time>2026-04-04T13:33:44.798Z</time></trkpt><trkpt lat="42.1099754" lon="12.879401"><ele>1082.3333333333335</ele><time>2026-04-04T13:33:46.798Z</time></trkpt><trkpt lat="42.1100202" lon="12.8795066"><ele>1082.0</ele><time>2026-04-04T13:33:48.798Z</time></trkpt><trkpt lat="42.1100131" lon="12.8796237"><ele>1082.0</ele><time>2026-04-04T13:33:50.798Z</time></trkpt><trkpt lat="42.1099428" lon="12.8797595"><ele>1082.0</ele><time>2026-04-04T13:33:52.797Z</time></trkpt><trkpt lat="42.1099055" lon="12.8798361"><ele>1082.0</ele><time>2026-04-04T13:33:53.798Z</time></trkpt><trkpt lat="42.1098647" lon="12.8799309"><ele>1082.0</ele><time>2026-04-04T13:33:54.798Z</time></trkpt><trkpt lat="42.1098188" lon="12.8800086"><ele>1082.0</ele><time>2026-04-04T13:33:55.798Z</time></trkpt><trkpt lat="42.109796" lon="12.8800923"><ele>1082.0</ele><time>2026-04-04T13:33:56.798Z</time></trkpt><trkpt lat="42.1097608" lon="12.8801638"><ele>1085.3333333333335</ele><time>2026-04-04T13:33:57.798Z</time></trkpt><trkpt lat="42.1096877" lon="12.880295"><ele>1088.6666666666667</ele><time>2026-04-04T13:33:59.798Z</time></trkpt><trkpt lat="42.1096409" lon="12.8803619"><ele>1092.0</ele><time>2026-04-04T13:34:00.798Z</time></trkpt><trkpt lat="42.1095933" lon="12.8804196"><ele>1095.3333333333333</ele><time>2026-04-04T13:34:01.798Z</time></trkpt><trkpt lat="42.1095468" lon="12.880494"><ele>1098.6666666666665</ele><time>2026-04-04T13:34:02.797Z</time></trkpt><trkpt lat="42.1094899" lon="12.8806193"><ele>1102.0</ele><time>2026-04-04T13:34:04.797Z</time></trkpt><trkpt lat="42.109435" lon="12.8807653"><ele>1102.0</ele><time>2026-04-04T13:34:06.798Z</time></trkpt><trkpt lat="42.1094166" lon="12.8808548"><ele>1102.0</ele><time>2026-04-04T13:34:07.798Z</time></trkpt><trkpt lat="42.1093726" lon="12.8809751"><ele>1102.0</ele><time>2026-04-04T13:34:08.798Z</time></trkpt><trkpt lat="42.1093543" lon="12.8810679"><ele>1102.0</ele><time>2026-04-04T13:34:09.798Z</time></trkpt><trkpt lat="42.1093116" lon="12.8811522"><ele>1102.0</ele><time>2026-04-04T13:34:10.798Z</time></trkpt><trkpt lat="42.1092453" lon="12.8813079"><ele>1102.0</ele><time>2026-04-04T13:34:12.798Z</time></trkpt><trkpt lat="42.1092129" lon="12.8813842"><ele>1102.2</ele><time>2026-04-04T13:34:13.798Z</time></trkpt><trkpt lat="42.1091929" lon="12.881475"><ele>1102.4</ele><time>2026-04-04T13:34:14.798Z</time></trkpt><trkpt lat="42.1091999" lon="12.8815992"><ele>1102.6</ele><time>2026-04-04T13:34:16.798Z</time></trkpt><trkpt lat="42.1092675" lon="12.881651"><ele>1102.8</ele><time>2026-04-04T13:34:18.798Z</time></trkpt><trkpt lat="42.1093727" lon="12.8816419"><ele>1103.0</ele><time>2026-04-04T13:34:20.798Z</time></trkpt><trkpt lat="42.1094967" lon="12.8815765"><ele>1103.0</ele><time>2026-04-04T13:34:22.798Z</time></trkpt><trkpt lat="42.1095631" lon="12.8815435"><ele>1103.0</ele><time>2026-04-04T13:34:23.798Z</time></trkpt><trkpt lat="42.1096221" lon="12.8815115"><ele>1103.0</ele><time>2026-04-04T13:34:24.798Z</time></trkpt><trkpt lat="42.1097525" lon="12.8814735"><ele>1103.0</ele><time>2026-04-04T13:34:26.798Z</time></trkpt><trkpt lat="42.1098491" lon="12.8814468"><ele>1103.0</ele><time>2026-04-04T13:34:27.797Z</time></trkpt><trkpt lat="42.1099162" lon="12.8814167"><ele>1103.0</ele><time>2026-04-04T13:34:28.798Z</time></trkpt><trkpt lat="42.1100402" lon="12.8813805"><ele>1103.0</ele><time>2026-04-04T13:34:30.798Z</time></trkpt><trkpt lat="42.1101082" lon="12.8813764"><ele>1103.0</ele><time>2026-04-04T13:34:31.798Z</time></trkpt><trkpt lat="42.1102317" lon="12.8813933"><ele>1103.0</ele><time>2026-04-04T13:34:33.798Z</time></trkpt><trkpt lat="42.110313" lon="12.8814198"><ele>1103.0</ele><time>2026-04-04T13:34:34.797Z</time></trkpt><trkpt lat="42.1103972" lon="12.8814457"><ele>1103.0</ele><time>2026-04-04T13:34:35.797Z</time></trkpt><trkpt lat="42.1104735" lon="12.8814788"><ele>1103.0</ele><time>2026-04-04T13:34:36.798Z</time></trkpt><trkpt lat="42.1105476" lon="12.8815008"><ele>1103.0</ele><time>2026-04-04T13:34:37.798Z</time></trkpt><trkpt lat="42.1106251" lon="12.8815134"><ele>1103.0</ele><time>2026-04-04T13:34:38.798Z</time></trkpt><trkpt lat="42.110709" lon="12.8815372"><ele>1103.0</ele><time>2026-04-04T13:34:39.798Z</time></trkpt><trkpt lat="42.1107921" lon="12.88156"><ele>1103.0</ele><time>2026-04-04T13:34:40.798Z</time></trkpt><trkpt lat="42.1108783" lon="12.881578"><ele>1103.0</ele><time>2026-04-04T13:34:41.798Z</time></trkpt><trkpt lat="42.1109624" lon="12.8815906"><ele>1103.0</ele><time>2026-04-04T13:34:42.798Z</time></trkpt><trkpt lat="42.1110443" lon="12.8816082"><ele>1104.0</ele><time>2026-04-04T13:34:43.797Z</time></trkpt><trkpt lat="42.1111315" lon="12.8816143"><ele>1105.0</ele><time>2026-04-04T13:34:44.798Z</time></trkpt><trkpt lat="42.1112023" lon="12.8816367"><ele>1106.0</ele><time>2026-04-04T13:34:45.798Z</time></trkpt><trkpt lat="42.1112991" lon="12.8816493"><ele>1107.0</ele><time>2026-04-04T13:34:46.798Z</time></trkpt><trkpt lat="42.1114007" lon="12.8816666"><ele>1108.0</ele><time>2026-04-04T13:34:47.798Z</time></trkpt><trkpt lat="42.1115018" lon="12.881672"><ele>1108.4</ele><time>2026-04-04T13:34:48.798Z</time></trkpt><trkpt lat="42.111605" lon="12.8816736"><ele>1108.8</ele><time>2026-04-04T13:34:49.798Z</time></trkpt><trkpt lat="42.1116986" lon="12.8816641"><ele>1109.2</ele><time>2026-04-04T13:34:50.798Z</time></trkpt><trkpt lat="42.111798" lon="12.8816507"><ele>1109.6</ele><time>2026-04-04T13:34:51.798Z</time></trkpt><trkpt lat="42.1118999" lon="12.8816285"><ele>1110.0</ele><time>2026-04-04T13:34:52.798Z</time></trkpt><trkpt lat="42.1119995" lon="12.8816112"><ele>1110.0</ele><time>2026-04-04T13:34:53.798Z</time></trkpt><trkpt lat="42.1120962" lon="12.8816018"><ele>1110.0</ele><time>2026-04-04T13:34:54.797Z</time></trkpt><trkpt lat="42.112185" lon="12.8816031"><ele>1110.0</ele><time>2026-04-04T13:34:55.798Z</time></trkpt><trkpt lat="42.1122736" lon="12.881625"><ele>1110.0</ele><time>2026-04-04T13:34:56.798Z</time></trkpt><trkpt lat="42.1123613" lon="12.8816553"><ele>1110.0</ele><time>2026-04-04T13:34:57.797Z</time></trkpt><trkpt lat="42.1124538" lon="12.881676"><ele>1110.6666666666667</ele><time>2026-04-04T13:34:58.798Z</time></trkpt><trkpt lat="42.1125459" lon="12.8816825"><ele>1111.3333333333333</ele><time>2026-04-04T13:34:59.798Z</time></trkpt><trkpt lat="42.1126335" lon="12.8816711"><ele>1112.0</ele><time>2026-04-04T13:35:00.797Z</time></trkpt><trkpt lat="42.1127145" lon="12.8816446"><ele>1112.6666666666665</ele><time>2026-04-04T13:35:01.798Z</time></trkpt><trkpt lat="42.1127955" lon="12.8816019"><ele>1113.3333333333333</ele><time>2026-04-04T13:35:02.797Z</time></trkpt><trkpt lat="42.1128817" lon="12.8815693"><ele>1114.0</ele><time>2026-04-04T13:35:03.798Z</time></trkpt><trkpt lat="42.1129815" lon="12.8815411"><ele>1114.0</ele><time>2026-04-04T13:35:04.798Z</time></trkpt><trkpt lat="42.1130875" lon="12.881513"><ele>1114.0</ele><time>2026-04-04T13:35:05.798Z</time></trkpt><trkpt lat="42.1131903" lon="12.8814983"><ele>1114.0</ele><time>2026-04-04T13:35:06.798Z</time></trkpt><trkpt lat="42.1132907" lon="12.8814891"><ele>1114.0</ele><time>2026-04-04T13:35:07.798Z</time></trkpt><trkpt lat="42.1133743" lon="12.8814978"><ele>1114.0</ele><time>2026-04-04T13:35:08.798Z</time></trkpt><trkpt lat="42.1134508" lon="12.8815075"><ele>1115.3333333333333</ele><time>2026-04-04T13:35:09.798Z</time></trkpt><trkpt lat="42.1135262" lon="12.8815112"><ele>1116.6666666666665</ele><time>2026-04-04T13:35:10.798Z</time></trkpt><trkpt lat="42.1135933" lon="12.8815328"><ele>1118.0</ele><time>2026-04-04T13:35:11.798Z</time></trkpt><trkpt lat="42.1136632" lon="12.8815592"><ele>1119.3333333333333</ele><time>2026-04-04T13:35:12.798Z</time></trkpt><trkpt lat="42.113737" lon="12.881601"><ele>1120.6666666666667</ele><time>2026-04-04T13:35:13.798Z</time></trkpt><trkpt lat="42.1138167" lon="12.8816447"><ele>1122.0</ele><time>2026-04-04T13:35:14.798Z</time></trkpt><trkpt lat="42.1138953" lon="12.881671"><ele>1122.0</ele><time>2026-04-04T13:35:15.798Z</time></trkpt><trkpt lat="42.1139783" lon="12.8816778"><ele>1122.0</ele><time>2026-04-04T13:35:16.798Z</time></trkpt><trkpt lat="42.1140658" lon="12.8816691"><ele>1122.0</ele><time>2026-04-04T13:35:17.798Z</time></trkpt><trkpt lat="42.1141529" lon="12.881654"><ele>1122.0</ele><time>2026-04-04T13:35:18.798Z</time></trkpt><trkpt lat="42.1142387" lon="12.8815862"><ele>1122.0</ele><time>2026-04-04T13:35:19.798Z</time></trkpt><trkpt lat="42.1143214" lon="12.8815211"><ele>1123.2</ele><time>2026-04-04T13:35:20.797Z</time></trkpt><trkpt lat="42.1144143" lon="12.8814465"><ele>1124.4</ele><time>2026-04-04T13:35:21.798Z</time></trkpt><trkpt lat="42.1144937" lon="12.8813721"><ele>1125.6</ele><time>2026-04-04T13:35:22.798Z</time></trkpt><trkpt lat="42.1145752" lon="12.8813223"><ele>1126.8</ele><time>2026-04-04T13:35:23.798Z</time></trkpt><trkpt lat="42.1146611" lon="12.8812696"><ele>1128.0</ele><time>2026-04-04T13:35:24.797Z</time></trkpt><trkpt lat="42.1147476" lon="12.8812156"><ele>1128.0</ele><time>2026-04-04T13:35:25.798Z</time></trkpt><trkpt lat="42.1148293" lon="12.8811766"><ele>1128.0</ele><time>2026-04-04T13:35:26.798Z</time></trkpt><trkpt lat="42.1149106" lon="12.8811274"><ele>1128.0</ele><time>2026-04-04T13:35:27.798Z</time></trkpt><trkpt lat="42.1149869" lon="12.8810853"><ele>1128.0</ele><time>2026-04-04T13:35:28.798Z</time></trkpt><trkpt lat="42.1150585" lon="12.8810448"><ele>1128.0</ele><time>2026-04-04T13:35:29.798Z</time></trkpt><trkpt lat="42.115143" lon="12.8810304"><ele>1128.0</ele><time>2026-04-04T13:35:30.798Z</time></trkpt><trkpt lat="42.1152267" lon="12.8810155"><ele>1131.3333333333333</ele><time>2026-04-04T13:35:31.798Z</time></trkpt><trkpt lat="42.1153154" lon="12.8810098"><ele>1134.6666666666667</ele><time>2026-04-04T13:35:32.798Z</time></trkpt><trkpt lat="42.1153969" lon="12.8810107"><ele>1138.0</ele><time>2026-04-04T13:35:33.798Z</time></trkpt><trkpt lat="42.115485" lon="12.8810213"><ele>1141.3333333333335</ele><time>2026-04-04T13:35:34.798Z</time></trkpt><trkpt lat="42.1155706" lon="12.8810344"><ele>1144.6666666666667</ele><time>2026-04-04T13:35:35.797Z</time></trkpt><trkpt lat="42.1156401" lon="12.8810522"><ele>1148.0</ele><time>2026-04-04T13:35:36.798Z</time></trkpt><trkpt lat="42.1157098" lon="12.8810843"><ele>1148.3333333333335</ele><time>2026-04-04T13:35:37.798Z</time></trkpt><trkpt lat="42.1157937" lon="12.8811363"><ele>1148.6666666666667</ele><time>2026-04-04T13:35:38.798Z</time></trkpt><trkpt lat="42.1158643" lon="12.8811817"><ele>1149.0</ele><time>2026-04-04T13:35:39.798Z</time></trkpt><trkpt lat="42.1159269" lon="12.8812516"><ele>1149.3333333333333</ele><time>2026-04-04T13:35:40.798Z</time></trkpt><trkpt lat="42.1159875" lon="12.8813488"><ele>1149.6666666666665</ele><time>2026-04-04T13:35:41.798Z</time></trkpt><trkpt lat="42.1160434" lon="12.8814384"><ele>1150.0</ele><time>2026-04-04T13:35:42.798Z</time></trkpt><trkpt lat="42.1160955" lon="12.8815371"><ele>1150.0</ele><time>2026-04-04T13:35:43.798Z</time></trkpt><trkpt lat="42.1161476" lon="12.8816396"><ele>1150.0</ele><time>2026-04-04T13:35:44.797Z</time></trkpt><trkpt lat="42.1162033" lon="12.8817206"><ele>1150.0</ele><time>2026-04-04T13:35:45.798Z</time></trkpt><trkpt lat="42.1162702" lon="12.8817948"><ele>1150.0</ele><time>2026-04-04T13:35:46.798Z</time></trkpt><trkpt lat="42.1163457" lon="12.8818496"><ele>1150.0</ele><time>2026-04-04T13:35:47.798Z</time></trkpt><trkpt lat="42.1164349" lon="12.8818855"><ele>1150.0</ele><time>2026-04-04T13:35:48.797Z</time></trkpt><trkpt lat="42.1165186" lon="12.881903"><ele>1152.25</ele><time>2026-04-04T13:35:49.798Z</time></trkpt><trkpt lat="42.1166392" lon="12.8819032"><ele>1154.5</ele><time>2026-04-04T13:35:50.798Z</time></trkpt><trkpt lat="42.1167652" lon="12.8819028"><ele>1156.75</ele><time>2026-04-04T13:35:51.798Z</time></trkpt><trkpt lat="42.116881" lon="12.8818881"><ele>1159.0</ele><time>2026-04-04T13:35:52.798Z</time></trkpt><trkpt lat="42.1170006" lon="12.8818656"><ele>1159.0</ele><time>2026-04-04T13:35:53.797Z</time></trkpt><trkpt lat="42.117104" lon="12.8818332"><ele>1159.0</ele><time>2026-04-04T13:35:54.798Z</time></trkpt><trkpt lat="42.1172212" lon="12.8817959"><ele>1159.0</ele><time>2026-04-04T13:35:55.798Z</time></trkpt><trkpt lat="42.1173363" lon="12.881768"><ele>1159.0</ele><time>2026-04-04T13:35:56.798Z</time></trkpt><trkpt lat="42.117442" lon="12.8817387"><ele>1156.5</ele><time>2026-04-04T13:35:57.798Z</time></trkpt><trkpt lat="42.11753" lon="12.8817058"><ele>1154.0</ele><time>2026-04-04T13:35:58.797Z</time></trkpt><trkpt lat="42.1176085" lon="12.881691"><ele>1151.5</ele><time>2026-04-04T13:35:59.798Z</time></trkpt><trkpt lat="42.1176731" lon="12.8816905"><ele>1149.0</ele><time>2026-04-04T13:36:00.798Z</time></trkpt><trkpt lat="42.1177481" lon="12.8817459"><ele>1146.5</ele><time>2026-04-04T13:36:02.798Z</time></trkpt><trkpt lat="42.1177736" lon="12.8818505"><ele>1144.0</ele><time>2026-04-04T13:36:04.797Z</time></trkpt><trkpt lat="42.1177458" lon="12.8819404"><ele>1144.0</ele><time>2026-04-04T13:36:05.798Z</time></trkpt><trkpt lat="42.1177199" lon="12.8820376"><ele>1144.0</ele><time>2026-04-04T13:36:06.798Z</time></trkpt><trkpt lat="42.1176951" lon="12.8821187"><ele>1144.0</ele><time>2026-04-04T13:36:07.798Z</time></trkpt><trkpt lat="42.1176143" lon="12.8822433"><ele>1144.0</ele><time>2026-04-04T13:36:09.798Z</time></trkpt><trkpt lat="42.1175631" lon="12.8822995"><ele>1144.0</ele><time>2026-04-04T13:36:10.797Z</time></trkpt><trkpt lat="42.1175103" lon="12.882351"><ele>1144.0</ele><time>2026-04-04T13:36:11.798Z</time></trkpt><trkpt lat="42.1174289" lon="12.8824618"><ele>1144.0</ele><time>2026-04-04T13:36:13.798Z</time></trkpt><trkpt lat="42.1174104" lon="12.8825484"><ele>1144.0</ele><time>2026-04-04T13:36:14.798Z</time></trkpt><trkpt lat="42.1173802" lon="12.8826422"><ele>1144.0</ele><time>2026-04-04T13:36:15.798Z</time></trkpt><trkpt lat="42.1173516" lon="12.8827233"><ele>1144.0</ele><time>2026-04-04T13:36:16.798Z</time></trkpt><trkpt lat="42.1173276" lon="12.8828051"><ele>1144.0</ele><time>2026-04-04T13:36:17.798Z</time></trkpt><trkpt lat="42.1173027" lon="12.8828891"><ele>1144.0</ele><time>2026-04-04T13:36:18.798Z</time></trkpt><trkpt lat="42.1172476" lon="12.8830481"><ele>1147.8333333333333</ele><time>2026-04-04T13:36:20.798Z</time></trkpt><trkpt lat="42.1172202" lon="12.8831394"><ele>1151.6666666666665</ele><time>2026-04-04T13:36:21.798Z</time></trkpt><trkpt lat="42.1172025" lon="12.8832223"><ele>1155.5</ele><time>2026-04-04T13:36:22.798Z</time></trkpt><trkpt lat="42.117191" lon="12.883375"><ele>1159.3333333333333</ele><time>2026-04-04T13:36:24.798Z</time></trkpt><trkpt lat="42.1172297" lon="12.8834563"><ele>1163.1666666666667</ele><time>2026-04-04T13:36:25.798Z</time></trkpt><trkpt lat="42.1172785" lon="12.8835562"><ele>1167.0</ele><time>2026-04-04T13:36:26.798Z</time></trkpt><trkpt lat="42.1173233" lon="12.883655"><ele>1167.1666666666667</ele><time>2026-04-04T13:36:27.798Z</time></trkpt><trkpt lat="42.1173743" lon="12.8837521"><ele>1167.3333333333333</ele><time>2026-04-04T13:36:28.798Z</time></trkpt><trkpt lat="42.1174266" lon="12.883834"><ele>1167.5</ele><time>2026-04-04T13:36:29.798Z</time></trkpt><trkpt lat="42.1174762" lon="12.8839035"><ele>1167.6666666666665</ele><time>2026-04-04T13:36:30.798Z</time></trkpt><trkpt lat="42.1175606" lon="12.8839397"><ele>1167.8333333333333</ele><time>2026-04-04T13:36:31.798Z</time></trkpt><trkpt lat="42.1176313" lon="12.883975"><ele>1168.0</ele><time>2026-04-04T13:36:32.798Z</time></trkpt><trkpt lat="42.1176992" lon="12.8839951"><ele>1164.0</ele><time>2026-04-04T13:36:33.798Z</time></trkpt><trkpt lat="42.1177757" lon="12.8840146"><ele>1160.0</ele><time>2026-04-04T13:36:34.798Z</time></trkpt><trkpt lat="42.1178575" lon="12.8840351"><ele>1156.0</ele><time>2026-04-04T13:36:35.798Z</time></trkpt><trkpt lat="42.117925" lon="12.8840458"><ele>1152.0</ele><time>2026-04-04T13:36:36.798Z</time></trkpt><trkpt lat="42.1180413" lon="12.8840948"><ele>1148.0</ele><time>2026-04-04T13:36:38.798Z</time></trkpt><trkpt lat="42.1180999" lon="12.8841788"><ele>1144.0</ele><time>2026-04-04T13:36:40.798Z</time></trkpt><trkpt lat="42.1180775" lon="12.8843003"><ele>1144.0</ele><time>2026-04-04T13:36:42.798Z</time></trkpt><trkpt lat="42.1179813" lon="12.8844153"><ele>1144.0</ele><time>2026-04-04T13:36:44.798Z</time></trkpt><trkpt lat="42.1179284" lon="12.884479"><ele>1144.0</ele><time>2026-04-04T13:36:45.798Z</time></trkpt><trkpt lat="42.1178463" lon="12.8846173"><ele>1144.0</ele><time>2026-04-04T13:36:47.798Z</time></trkpt><trkpt lat="42.1178213" lon="12.8847074"><ele>1144.0</ele><time>2026-04-04T13:36:48.798Z</time></trkpt><trkpt lat="42.1178234" lon="12.8848087"><ele>1144.0</ele><time>2026-04-04T13:36:49.798Z</time></trkpt><trkpt lat="42.1178208" lon="12.8849124"><ele>1144.0</ele><time>2026-04-04T13:36:50.798Z</time></trkpt><trkpt lat="42.1178531" lon="12.8850128"><ele>1144.0</ele><time>2026-04-04T13:36:51.798Z</time></trkpt><trkpt lat="42.1178688" lon="12.8850995"><ele>1144.0</ele><time>2026-04-04T13:36:52.798Z</time></trkpt><trkpt lat="42.1178878" lon="12.8852686"><ele>1144.0</ele><time>2026-04-04T13:36:54.798Z</time></trkpt><trkpt lat="42.1178476" lon="12.8853913"><ele>1141.6666666666665</ele><time>2026-04-04T13:36:55.798Z</time></trkpt><trkpt lat="42.1178239" lon="12.8854896"><ele>1139.3333333333333</ele><time>2026-04-04T13:36:56.798Z</time></trkpt><trkpt lat="42.1178122" lon="12.8855915"><ele>1137.0</ele><time>2026-04-04T13:36:57.798Z</time></trkpt><trkpt lat="42.1178034" lon="12.8856927"><ele>1134.6666666666667</ele><time>2026-04-04T13:36:58.798Z</time></trkpt><trkpt lat="42.1178045" lon="12.8858027"><ele>1132.3333333333335</ele><time>2026-04-04T13:36:59.798Z</time></trkpt><trkpt lat="42.1178057" lon="12.8858927"><ele>1130.0</ele><time>2026-04-04T13:37:00.798Z</time></trkpt><trkpt lat="42.1177986" lon="12.8860245"><ele>1126.8</ele><time>2026-04-04T13:37:02.798Z</time></trkpt><trkpt lat="42.1177371" lon="12.8861321"><ele>1123.6</ele><time>2026-04-04T13:37:04.798Z</time></trkpt><trkpt lat="42.1176807" lon="12.8861822"><ele>1120.4</ele><time>2026-04-04T13:37:05.798Z</time></trkpt><trkpt lat="42.117599" lon="12.8863099"><ele>1117.2</ele><time>2026-04-04T13:37:07.798Z</time></trkpt><trkpt lat="42.1175574" lon="12.886389"><ele>1114.0</ele><time>2026-04-04T13:37:08.798Z</time></trkpt><trkpt lat="42.1175278" lon="12.8865042"><ele>1114.0</ele><time>2026-04-04T13:37:09.798Z</time></trkpt><trkpt lat="42.1174978" lon="12.8866024"><ele>1114.0</ele><time>2026-04-04T13:37:10.798Z</time></trkpt><trkpt lat="42.1174634" lon="12.8866968"><ele>1114.0</ele><time>2026-04-04T13:37:11.798Z</time></trkpt><trkpt lat="42.1174359" lon="12.8867913"><ele>1114.0</ele><time>2026-04-04T13:37:12.798Z</time></trkpt><trkpt lat="42.1174059" lon="12.8868863"><ele>1114.0</ele><time>2026-04-04T13:37:13.798Z</time></trkpt><trkpt lat="42.1173957" lon="12.8869854"><ele>1114.0</ele><time>2026-04-04T13:37:14.798Z</time></trkpt><trkpt lat="42.1173868" lon="12.8870747"><ele>1111.0</ele><time>2026-04-04T13:37:15.798Z</time></trkpt><trkpt lat="42.117411" lon="12.8871813"><ele>1108.0</ele><time>2026-04-04T13:37:16.798Z</time></trkpt><trkpt lat="42.1174363" lon="12.8872776"><ele>1105.0</ele><time>2026-04-04T13:37:17.798Z</time></trkpt><trkpt lat="42.1174549" lon="12.887371"><ele>1102.0</ele><time>2026-04-04T13:37:18.798Z</time></trkpt><trkpt lat="42.1174827" lon="12.8874535"><ele>1099.0</ele><time>2026-04-04T13:37:19.798Z</time></trkpt><trkpt lat="42.117557" lon="12.8875955"><ele>1096.0</ele><time>2026-04-04T13:37:21.798Z</time></trkpt><trkpt lat="42.1176552" lon="12.8876874"><ele>1092.3999999999999</ele><time>2026-04-04T13:37:23.797Z</time></trkpt><trkpt lat="42.1177146" lon="12.8877301"><ele>1088.8</ele><time>2026-04-04T13:37:24.797Z</time></trkpt><trkpt lat="42.1178058" lon="12.8878313"><ele>1085.1999999999998</ele><time>2026-04-04T13:37:26.798Z</time></trkpt><trkpt lat="42.1178612" lon="12.8879514"><ele>1081.6</ele><time>2026-04-04T13:37:28.798Z</time></trkpt><trkpt lat="42.1178985" lon="12.8880897"><ele>1078.0</ele><time>2026-04-04T13:37:30.798Z</time></trkpt><trkpt lat="42.1178935" lon="12.8882282"><ele>1078.0</ele><time>2026-04-04T13:37:32.798Z</time></trkpt><trkpt lat="42.1178778" lon="12.8883751"><ele>1078.0</ele><time>2026-04-04T13:37:34.798Z</time></trkpt><trkpt lat="42.1178719" lon="12.8884985"><ele>1078.0</ele><time>2026-04-04T13:37:36.797Z</time></trkpt><trkpt lat="42.1178898" lon="12.888606"><ele>1078.0</ele><time>2026-04-04T13:37:38.798Z</time></trkpt><trkpt lat="42.1179244" lon="12.888696"><ele>1078.0</ele><time>2026-04-04T13:37:40.797Z</time></trkpt><trkpt lat="42.1179712" lon="12.8887844"><ele>1078.0</ele><time>2026-04-04T13:37:42.798Z</time></trkpt><trkpt lat="42.118028" lon="12.8888584"><ele>1079.2</ele><time>2026-04-04T13:37:44.798Z</time></trkpt><trkpt lat="42.118093" lon="12.888915"><ele>1080.4</ele><time>2026-04-04T13:37:47.798Z</time></trkpt><trkpt lat="42.1181712" lon="12.8889606"><ele>1081.6000000000001</ele><time>2026-04-04T13:37:50.798Z</time></trkpt><trkpt lat="42.1182451" lon="12.8889876"><ele>1082.8</ele><time>2026-04-04T13:37:52.798Z</time></trkpt><trkpt lat="42.1183487" lon="12.8890436"><ele>1084.0</ele><time>2026-04-04T13:37:54.798Z</time></trkpt><trkpt lat="42.1184447" lon="12.8891235"><ele>1084.0</ele><time>2026-04-04T13:37:56.798Z</time></trkpt><trkpt lat="42.1184865" lon="12.8891908"><ele>1084.0</ele><time>2026-04-04T13:37:57.798Z</time></trkpt><trkpt lat="42.1185295" lon="12.8892703"><ele>1084.0</ele><time>2026-04-04T13:37:58.798Z</time></trkpt><trkpt lat="42.1185663" lon="12.889356"><ele>1084.0</ele><time>2026-04-04T13:37:59.798Z</time></trkpt><trkpt lat="42.118603" lon="12.8894456"><ele>1084.0</ele><time>2026-04-04T13:38:00.798Z</time></trkpt><trkpt lat="42.1186364" lon="12.8895323"><ele>1084.0</ele><time>2026-04-04T13:38:01.798Z</time></trkpt><trkpt lat="42.1186601" lon="12.8896199"><ele>1084.0</ele><time>2026-04-04T13:38:02.798Z</time></trkpt><trkpt lat="42.1186684" lon="12.8897061"><ele>1083.0</ele><time>2026-04-04T13:38:03.798Z</time></trkpt><trkpt lat="42.1186774" lon="12.8898028"><ele>1082.0</ele><time>2026-04-04T13:38:04.798Z</time></trkpt><trkpt lat="42.1186831" lon="12.8898966"><ele>1081.0</ele><time>2026-04-04T13:38:05.798Z</time></trkpt><trkpt lat="42.1186884" lon="12.8899933"><ele>1080.0</ele><time>2026-04-04T13:38:06.798Z</time></trkpt><trkpt lat="42.1186953" lon="12.8900906"><ele>1079.0</ele><time>2026-04-04T13:38:07.798Z</time></trkpt><trkpt lat="42.1186993" lon="12.8901833"><ele>1078.0</ele><time>2026-04-04T13:38:08.798Z</time></trkpt><trkpt lat="42.1187037" lon="12.8902763"><ele>1077.0</ele><time>2026-04-04T13:38:09.798Z</time></trkpt><trkpt lat="42.1187116" lon="12.8903736"><ele>1076.0</ele><time>2026-04-04T13:38:10.798Z</time></trkpt><trkpt lat="42.1187257" lon="12.890472"><ele>1075.0</ele><time>2026-04-04T13:38:11.798Z</time></trkpt><trkpt lat="42.1187434" lon="12.8905696"><ele>1074.0</ele><time>2026-04-04T13:38:12.798Z</time></trkpt><trkpt lat="42.1187699" lon="12.8906889"><ele>1073.0</ele><time>2026-04-04T13:38:13.798Z</time></trkpt><trkpt lat="42.118802" lon="12.8908055"><ele>1072.0</ele><time>2026-04-04T13:38:14.798Z</time></trkpt><trkpt lat="42.1188343" lon="12.8909224"><ele>1071.0</ele><time>2026-04-04T13:38:15.798Z</time></trkpt><trkpt lat="42.1188754" lon="12.8910353"><ele>1071.8333333333333</ele><time>2026-04-04T13:38:16.798Z</time></trkpt><trkpt lat="42.1189171" lon="12.8911424"><ele>1072.6666666666667</ele><time>2026-04-04T13:38:17.797Z</time></trkpt><trkpt lat="42.1189588" lon="12.8912465"><ele>1073.5</ele><time>2026-04-04T13:38:18.797Z</time></trkpt><trkpt lat="42.1190037" lon="12.8913509"><ele>1074.3333333333335</ele><time>2026-04-04T13:38:19.798Z</time></trkpt><trkpt lat="42.1190482" lon="12.8914529"><ele>1075.1666666666667</ele><time>2026-04-04T13:38:20.798Z</time></trkpt><trkpt lat="42.1190873" lon="12.8915594"><ele>1076.0</ele><time>2026-04-04T13:38:21.798Z</time></trkpt><trkpt lat="42.1191222" lon="12.8916673"><ele>1074.0</ele><time>2026-04-04T13:38:22.798Z</time></trkpt><trkpt lat="42.1191502" lon="12.8917738"><ele>1072.0</ele><time>2026-04-04T13:38:23.798Z</time></trkpt><trkpt lat="42.1191715" lon="12.8918837"><ele>1070.0</ele><time>2026-04-04T13:38:24.798Z</time></trkpt><trkpt lat="42.1191852" lon="12.8920013"><ele>1068.0</ele><time>2026-04-04T13:38:25.798Z</time></trkpt><trkpt lat="42.1191922" lon="12.892119"><ele>1066.0</ele><time>2026-04-04T13:38:26.798Z</time></trkpt><trkpt lat="42.119181" lon="12.8922479"><ele>1064.0</ele><time>2026-04-04T13:38:27.798Z</time></trkpt><trkpt lat="42.1191766" lon="12.8923562"><ele>1064.0</ele><time>2026-04-04T13:38:28.797Z</time></trkpt><trkpt lat="42.1191742" lon="12.8924438"><ele>1064.0</ele><time>2026-04-04T13:38:29.798Z</time></trkpt><trkpt lat="42.1191591" lon="12.8925594"><ele>1064.0</ele><time>2026-04-04T13:38:31.798Z</time></trkpt><trkpt lat="42.119145" lon="12.8926773"><ele>1064.0</ele><time>2026-04-04T13:39:14.797Z</time></trkpt><trkpt lat="42.119127" lon="12.8928308"><ele>1064.0</ele><time>2026-04-04T13:39:16.798Z</time></trkpt><trkpt lat="42.119059" lon="12.8929713"><ele>1061.2</ele><time>2026-04-04T13:39:18.798Z</time></trkpt><trkpt lat="42.1190007" lon="12.8930305"><ele>1058.4</ele><time>2026-04-04T13:39:19.797Z</time></trkpt><trkpt lat="42.118934" lon="12.8930624"><ele>1055.6</ele><time>2026-04-04T13:39:20.798Z</time></trkpt><trkpt lat="42.1188327" lon="12.893063"><ele>1052.8</ele><time>2026-04-04T13:39:22.798Z</time></trkpt><trkpt lat="42.1187473" lon="12.8929677"><ele>1050.0</ele><time>2026-04-04T13:39:24.798Z</time></trkpt><trkpt lat="42.1186957" lon="12.8928098"><ele>1050.0</ele><time>2026-04-04T13:39:26.798Z</time></trkpt><trkpt lat="42.1186498" lon="12.8926701"><ele>1050.0</ele><time>2026-04-04T13:39:28.798Z</time></trkpt><trkpt lat="42.1185849" lon="12.892595"><ele>1050.0</ele><time>2026-04-04T13:39:30.798Z</time></trkpt><trkpt lat="42.1184965" lon="12.8925842"><ele>1050.0</ele><time>2026-04-04T13:39:33.798Z</time></trkpt><trkpt lat="42.1184088" lon="12.8926522"><ele>1050.0</ele><time>2026-04-04T13:39:35.798Z</time></trkpt><trkpt lat="42.1183503" lon="12.8927085"><ele>1050.0</ele><time>2026-04-04T13:39:36.798Z</time></trkpt><trkpt lat="42.1182906" lon="12.8927743"><ele>1050.0</ele><time>2026-04-04T13:39:37.797Z</time></trkpt><trkpt lat="42.1182314" lon="12.8928293"><ele>1050.0</ele><time>2026-04-04T13:39:38.798Z</time></trkpt><trkpt lat="42.1181666" lon="12.892874"><ele>1050.0</ele><time>2026-04-04T13:39:39.798Z</time></trkpt><trkpt lat="42.1180959" lon="12.8929099"><ele>1050.0</ele><time>2026-04-04T13:39:40.798Z</time></trkpt><trkpt lat="42.1180252" lon="12.8929562"><ele>1050.0</ele><time>2026-04-04T13:39:41.798Z</time></trkpt><trkpt lat="42.1179581" lon="12.8930022"><ele>1046.6666666666667</ele><time>2026-04-04T13:39:42.798Z</time></trkpt><trkpt lat="42.1178928" lon="12.8930579"><ele>1043.3333333333333</ele><time>2026-04-04T13:39:43.798Z</time></trkpt><trkpt lat="42.1178273" lon="12.8931155"><ele>1040.0</ele><time>2026-04-04T13:39:44.798Z</time></trkpt><trkpt lat="42.1177604" lon="12.8931774"><ele>1036.6666666666665</ele><time>2026-04-04T13:39:45.798Z</time></trkpt><trkpt lat="42.1176881" lon="12.8932472"><ele>1033.3333333333333</ele><time>2026-04-04T13:39:46.798Z</time></trkpt><trkpt lat="42.1176192" lon="12.8933205"><ele>1030.0</ele><time>2026-04-04T13:39:47.798Z</time></trkpt><trkpt lat="42.1175527" lon="12.893394"><ele>1030.2857142857142</ele><time>2026-04-04T13:39:48.798Z</time></trkpt><trkpt lat="42.1174975" lon="12.893464"><ele>1030.5714285714284</ele><time>2026-04-04T13:39:49.798Z</time></trkpt><trkpt lat="42.1174523" lon="12.8935348"><ele>1030.8571428571427</ele><time>2026-04-04T13:39:50.798Z</time></trkpt><trkpt lat="42.1174161" lon="12.8936171"><ele>1031.142857142857</ele><time>2026-04-04T13:39:51.798Z</time></trkpt><trkpt lat="42.1173854" lon="12.8937019"><ele>1031.4285714285713</ele><time>2026-04-04T13:39:52.798Z</time></trkpt><trkpt lat="42.1173644" lon="12.8937941"><ele>1031.7142857142856</ele><time>2026-04-04T13:39:53.798Z</time></trkpt><trkpt lat="42.1173466" lon="12.8938897"><ele>1032.0</ele><time>2026-04-04T13:39:54.797Z</time></trkpt><trkpt lat="42.1173324" lon="12.8939767"><ele>1026.5</ele><time>2026-04-04T13:39:55.798Z</time></trkpt><trkpt lat="42.1173099" lon="12.8941486"><ele>1021.0</ele><time>2026-04-04T13:39:57.798Z</time></trkpt><trkpt lat="42.1172987" lon="12.8942347"><ele>1015.5</ele><time>2026-04-04T13:39:58.798Z</time></trkpt><trkpt lat="42.1172767" lon="12.8943227"><ele>1010.0</ele><time>2026-04-04T13:39:59.797Z</time></trkpt><trkpt lat="42.1172484" lon="12.8944074"><ele>1004.5</ele><time>2026-04-04T13:40:00.797Z</time></trkpt><trkpt lat="42.1172156" lon="12.8944906"><ele>999.0</ele><time>2026-04-04T13:40:01.798Z</time></trkpt><trkpt lat="42.1171772" lon="12.8945727"><ele>999.0</ele><time>2026-04-04T13:40:02.798Z</time></trkpt><trkpt lat="42.1171434" lon="12.8946588"><ele>999.0000000000001</ele><time>2026-04-04T13:40:03.798Z</time></trkpt><trkpt lat="42.1171148" lon="12.8947417"><ele>999.0000000000001</ele><time>2026-04-04T13:40:04.798Z</time></trkpt><trkpt lat="42.1170838" lon="12.8948974"><ele>999.0</ele><time>2026-04-04T13:40:06.798Z</time></trkpt><trkpt lat="42.1171039" lon="12.8950572"><ele>999.0</ele><time>2026-04-04T13:40:08.797Z</time></trkpt><trkpt lat="42.1171723" lon="12.895193"><ele>1000.0</ele><time>2026-04-04T13:40:10.798Z</time></trkpt><trkpt lat="42.1172263" lon="12.8952556"><ele>1001.0</ele><time>2026-04-04T13:40:11.798Z</time></trkpt><trkpt lat="42.1172927" lon="12.8953159"><ele>1002.0</ele><time>2026-04-04T13:40:12.798Z</time></trkpt><trkpt lat="42.1173645" lon="12.8953819"><ele>1003.0</ele><time>2026-04-04T13:40:13.798Z</time></trkpt><trkpt lat="42.1174361" lon="12.8954439"><ele>1004.0</ele><time>2026-04-04T13:40:14.798Z</time></trkpt><trkpt lat="42.1175067" lon="12.895506"><ele>1005.0</ele><time>2026-04-04T13:40:15.798Z</time></trkpt><trkpt lat="42.1175726" lon="12.895568"><ele>1005.0</ele><time>2026-04-04T13:40:16.798Z</time></trkpt><trkpt lat="42.117636" lon="12.895643"><ele>1005.0</ele><time>2026-04-04T13:40:17.798Z</time></trkpt><trkpt lat="42.1177061" lon="12.895746"><ele>1005.0</ele><time>2026-04-04T13:40:18.798Z</time></trkpt><trkpt lat="42.1177723" lon="12.8958473"><ele>1005.0</ele><time>2026-04-04T13:40:19.798Z</time></trkpt><trkpt lat="42.1178311" lon="12.895953"><ele>1005.0</ele><time>2026-04-04T13:40:20.798Z</time></trkpt><trkpt lat="42.1178891" lon="12.8960557"><ele>1000.8</ele><time>2026-04-04T13:40:21.798Z</time></trkpt><trkpt lat="42.1179487" lon="12.89617"><ele>996.6</ele><time>2026-04-04T13:40:22.798Z</time></trkpt><trkpt lat="42.1180065" lon="12.8962856"><ele>992.4000000000001</ele><time>2026-04-04T13:40:23.798Z</time></trkpt><trkpt lat="42.1180555" lon="12.8964018"><ele>988.2</ele><time>2026-04-04T13:40:24.798Z</time></trkpt><trkpt lat="42.1180988" lon="12.8965274"><ele>984.0</ele><time>2026-04-04T13:40:25.798Z</time></trkpt><trkpt lat="42.1181444" lon="12.8966461"><ele>984.8000000000001</ele><time>2026-04-04T13:40:26.798Z</time></trkpt><trkpt lat="42.1181945" lon="12.896762"><ele>985.6000000000001</ele><time>2026-04-04T13:40:27.797Z</time></trkpt><trkpt lat="42.118247" lon="12.8968789"><ele>986.4</ele><time>2026-04-04T13:40:28.798Z</time></trkpt><trkpt lat="42.1182915" lon="12.8969993"><ele>987.2</ele><time>2026-04-04T13:40:29.798Z</time></trkpt><trkpt lat="42.1183218" lon="12.8971267"><ele>988.0</ele><time>2026-04-04T13:40:30.798Z</time></trkpt><trkpt lat="42.1183482" lon="12.8972644"><ele>988.0</ele><time>2026-04-04T13:40:31.798Z</time></trkpt><trkpt lat="42.1183776" lon="12.8973919"><ele>988.0</ele><time>2026-04-04T13:40:32.798Z</time></trkpt><trkpt lat="42.1184135" lon="12.8975038"><ele>988.0</ele><time>2026-04-04T13:40:33.797Z</time></trkpt><trkpt lat="42.1184562" lon="12.8976036"><ele>988.0</ele><time>2026-04-04T13:40:34.797Z</time></trkpt><trkpt lat="42.1185225" lon="12.8977122"><ele>988.0</ele><time>2026-04-04T13:40:35.798Z</time></trkpt><trkpt lat="42.1185935" lon="12.8978141"><ele>984.9999999999999</ele><time>2026-04-04T13:40:36.798Z</time></trkpt><trkpt lat="42.1186565" lon="12.8979052"><ele>982.0</ele><time>2026-04-04T13:40:37.798Z</time></trkpt><trkpt lat="42.1187222" lon="12.8979998"><ele>979.0</ele><time>2026-04-04T13:40:38.797Z</time></trkpt><trkpt lat="42.1187729" lon="12.898085"><ele>976.0</ele><time>2026-04-04T13:40:39.798Z</time></trkpt><trkpt lat="42.1188136" lon="12.898176"><ele>972.9999999999999</ele><time>2026-04-04T13:40:40.798Z</time></trkpt><trkpt lat="42.1188464" lon="12.8982873"><ele>970.0</ele><time>2026-04-04T13:40:41.798Z</time></trkpt><trkpt lat="42.1188737" lon="12.8984159"><ele>968.6</ele><time>2026-04-04T13:40:42.798Z</time></trkpt><trkpt lat="42.1188935" lon="12.8985401"><ele>967.2</ele><time>2026-04-04T13:40:43.798Z</time></trkpt><trkpt lat="42.1189122" lon="12.8986666"><ele>965.8</ele><time>2026-04-04T13:40:44.798Z</time></trkpt><trkpt lat="42.1189181" lon="12.8987864"><ele>964.4</ele><time>2026-04-04T13:40:45.798Z</time></trkpt><trkpt lat="42.1189163" lon="12.8989016"><ele>963.0</ele><time>2026-04-04T13:40:46.798Z</time></trkpt><trkpt lat="42.1189095" lon="12.8990181"><ele>963.0</ele><time>2026-04-04T13:40:47.798Z</time></trkpt><trkpt lat="42.118891" lon="12.8991409"><ele>963.0</ele><time>2026-04-04T13:40:48.798Z</time></trkpt><trkpt lat="42.1188648" lon="12.8992531"><ele>963.0</ele><time>2026-04-04T13:40:49.798Z</time></trkpt><trkpt lat="42.1188248" lon="12.8993551"><ele>963.0</ele><time>2026-04-04T13:40:50.798Z</time></trkpt><trkpt lat="42.1187753" lon="12.899443"><ele>963.0</ele><time>2026-04-04T13:40:51.798Z</time></trkpt><trkpt lat="42.1187181" lon="12.8995451"><ele>963.0</ele><time>2026-04-04T13:40:52.798Z</time></trkpt><trkpt lat="42.1186748" lon="12.8996296"><ele>963.1666666666666</ele><time>2026-04-04T13:40:53.798Z</time></trkpt><trkpt lat="42.1186337" lon="12.8997182"><ele>963.3333333333333</ele><time>2026-04-04T13:40:54.798Z</time></trkpt><trkpt lat="42.1186108" lon="12.8998208"><ele>963.5</ele><time>2026-04-04T13:40:55.798Z</time></trkpt><trkpt lat="42.1185919" lon="12.8999318"><ele>963.6666666666666</ele><time>2026-04-04T13:40:56.798Z</time></trkpt><trkpt lat="42.1185773" lon="12.9000501"><ele>963.8333333333333</ele><time>2026-04-04T13:40:57.798Z</time></trkpt><trkpt lat="42.1185697" lon="12.9001676"><ele>964.0</ele><time>2026-04-04T13:40:58.798Z</time></trkpt><trkpt lat="42.1185629" lon="12.9002827"><ele>962.1666666666666</ele><time>2026-04-04T13:40:59.798Z</time></trkpt><trkpt lat="42.1185608" lon="12.9003961"><ele>960.3333333333333</ele><time>2026-04-04T13:41:00.797Z</time></trkpt><trkpt lat="42.1185722" lon="12.9005068"><ele>958.5</ele><time>2026-04-04T13:41:01.797Z</time></trkpt><trkpt lat="42.118593" lon="12.9006029"><ele>956.6666666666667</ele><time>2026-04-04T13:41:02.798Z</time></trkpt><trkpt lat="42.1186257" lon="12.9006858"><ele>954.8333333333334</ele><time>2026-04-04T13:41:03.798Z</time></trkpt><trkpt lat="42.1186721" lon="12.9007613"><ele>953.0</ele><time>2026-04-04T13:41:04.797Z</time></trkpt><trkpt lat="42.1187372" lon="12.9008291"><ele>953.0000000000001</ele><time>2026-04-04T13:41:05.798Z</time></trkpt><trkpt lat="42.1188113" lon="12.9008916"><ele>953.0</ele><time>2026-04-04T13:41:06.798Z</time></trkpt><trkpt lat="42.1188767" lon="12.9009369"><ele>953.0</ele><time>2026-04-04T13:41:07.798Z</time></trkpt><trkpt lat="42.1189353" lon="12.9009867"><ele>953.0</ele><time>2026-04-04T13:41:08.798Z</time></trkpt><trkpt lat="42.119008" lon="12.9010475"><ele>953.0000000000001</ele><time>2026-04-04T13:41:09.798Z</time></trkpt><trkpt lat="42.1190656" lon="12.9011252"><ele>953.0</ele><time>2026-04-04T13:41:10.798Z</time></trkpt><trkpt lat="42.1191259" lon="12.9012136"><ele>953.1666666666667</ele><time>2026-04-04T13:41:11.798Z</time></trkpt><trkpt lat="42.1191738" lon="12.9012957"><ele>953.3333333333334</ele><time>2026-04-04T13:41:12.798Z</time></trkpt><trkpt lat="42.1192128" lon="12.9013774"><ele>953.5</ele><time>2026-04-04T13:41:13.798Z</time></trkpt><trkpt lat="42.1192389" lon="12.9014698"><ele>953.6666666666667</ele><time>2026-04-04T13:41:14.798Z</time></trkpt><trkpt lat="42.1192573" lon="12.9015756"><ele>953.8333333333334</ele><time>2026-04-04T13:41:15.797Z</time></trkpt><trkpt lat="42.119271" lon="12.9016837"><ele>954.0</ele><time>2026-04-04T13:41:16.798Z</time></trkpt><trkpt lat="42.1192916" lon="12.9017859"><ele>949.5</ele><time>2026-04-04T13:41:17.797Z</time></trkpt><trkpt lat="42.1193205" lon="12.9018732"><ele>945.0</ele><time>2026-04-04T13:41:18.798Z</time></trkpt><trkpt lat="42.1193648" lon="12.9019488"><ele>940.5</ele><time>2026-04-04T13:41:19.798Z</time></trkpt><trkpt lat="42.1194175" lon="12.902017"><ele>936.0</ele><time>2026-04-04T13:41:20.798Z</time></trkpt><trkpt lat="42.1194816" lon="12.9020856"><ele>931.5</ele><time>2026-04-04T13:41:21.798Z</time></trkpt><trkpt lat="42.1195565" lon="12.902151"><ele>927.0</ele><time>2026-04-04T13:41:22.798Z</time></trkpt><trkpt lat="42.1196282" lon="12.9022179"><ele>927.0</ele><time>2026-04-04T13:41:23.798Z</time></trkpt><trkpt lat="42.1196913" lon="12.9022759"><ele>927.0</ele><time>2026-04-04T13:41:24.798Z</time></trkpt><trkpt lat="42.1197609" lon="12.9023451"><ele>927.0</ele><time>2026-04-04T13:41:25.798Z</time></trkpt><trkpt lat="42.1198312" lon="12.9024197"><ele>927.0</ele><time>2026-04-04T13:41:26.797Z</time></trkpt><trkpt lat="42.1198973" lon="12.9024899"><ele>927.0</ele><time>2026-04-04T13:41:27.798Z</time></trkpt><trkpt lat="42.119953" lon="12.9025706"><ele>927.0</ele><time>2026-04-04T13:41:28.798Z</time></trkpt><trkpt lat="42.119998" lon="12.9026692"><ele>927.6</ele><time>2026-04-04T13:41:29.798Z</time></trkpt><trkpt lat="42.1200426" lon="12.9027878"><ele>928.2</ele><time>2026-04-04T13:41:30.798Z</time></trkpt><trkpt lat="42.1200838" lon="12.9029089"><ele>928.8</ele><time>2026-04-04T13:41:31.798Z</time></trkpt><trkpt lat="42.1201258" lon="12.9030309"><ele>929.4</ele><time>2026-04-04T13:41:32.798Z</time></trkpt><trkpt lat="42.1201672" lon="12.9031771"><ele>930.0</ele><time>2026-04-04T13:41:33.798Z</time></trkpt><trkpt lat="42.1202125" lon="12.9033248"><ele>926.6</ele><time>2026-04-04T13:41:34.798Z</time></trkpt><trkpt lat="42.1202577" lon="12.9034623"><ele>923.2</ele><time>2026-04-04T13:41:35.798Z</time></trkpt><trkpt lat="42.1203052" lon="12.9035965"><ele>919.8</ele><time>2026-04-04T13:41:36.798Z</time></trkpt><trkpt lat="42.1203586" lon="12.9037207"><ele>916.4</ele><time>2026-04-04T13:41:37.798Z</time></trkpt><trkpt lat="42.1204094" lon="12.9038409"><ele>913.0</ele><time>2026-04-04T13:41:38.798Z</time></trkpt><trkpt lat="42.1204618" lon="12.9039514"><ele>913.0</ele><time>2026-04-04T13:41:39.798Z</time></trkpt><trkpt lat="42.1205229" lon="12.9040473"><ele>913.0</ele><time>2026-04-04T13:41:40.798Z</time></trkpt><trkpt lat="42.120588" lon="12.9041246"><ele>913.0</ele><time>2026-04-04T13:41:41.798Z</time></trkpt><trkpt lat="42.1206639" lon="12.9041815"><ele>913.0</ele><time>2026-04-04T13:41:42.797Z</time></trkpt><trkpt lat="42.1207624" lon="12.904239"><ele>913.0</ele><time>2026-04-04T13:41:43.798Z</time></trkpt><trkpt lat="42.1208706" lon="12.9042809"><ele>912.4999999999999</ele><time>2026-04-04T13:41:44.798Z</time></trkpt><trkpt lat="42.1209698" lon="12.9043133"><ele>912.0</ele><time>2026-04-04T13:41:45.797Z</time></trkpt><trkpt lat="42.1210636" lon="12.9043449"><ele>911.5</ele><time>2026-04-04T13:41:46.798Z</time></trkpt><trkpt lat="42.1211498" lon="12.9043802"><ele>911.0</ele><time>2026-04-04T13:41:47.798Z</time></trkpt><trkpt lat="42.1212204" lon="12.9044191"><ele>910.4999999999999</ele><time>2026-04-04T13:41:48.798Z</time></trkpt><trkpt lat="42.1212821" lon="12.9044679"><ele>910.0</ele><time>2026-04-04T13:41:49.798Z</time></trkpt><trkpt lat="42.1213436" lon="12.9045309"><ele>910.0</ele><time>2026-04-04T13:41:50.798Z</time></trkpt><trkpt lat="42.1213983" lon="12.9046197"><ele>910.0</ele><time>2026-04-04T13:41:51.798Z</time></trkpt><trkpt lat="42.1214619" lon="12.9047215"><ele>910.0</ele><time>2026-04-04T13:41:52.797Z</time></trkpt><trkpt lat="42.1215182" lon="12.9048188"><ele>910.0</ele><time>2026-04-04T13:41:53.798Z</time></trkpt><trkpt lat="42.1215788" lon="12.9049121"><ele>910.0</ele><time>2026-04-04T13:41:54.798Z</time></trkpt><trkpt lat="42.1216417" lon="12.9049929"><ele>912.2</ele><time>2026-04-04T13:41:55.798Z</time></trkpt><trkpt lat="42.1217146" lon="12.905078"><ele>914.4</ele><time>2026-04-04T13:41:56.798Z</time></trkpt><trkpt lat="42.1217875" lon="12.9051589"><ele>916.5999999999999</ele><time>2026-04-04T13:41:57.798Z</time></trkpt><trkpt lat="42.1218606" lon="12.9052445"><ele>918.8</ele><time>2026-04-04T13:41:58.798Z</time></trkpt><trkpt lat="42.1219323" lon="12.9053376"><ele>921.0</ele><time>2026-04-04T13:41:59.798Z</time></trkpt><trkpt lat="42.1219991" lon="12.9054469"><ele>916.4</ele><time>2026-04-04T13:42:00.798Z</time></trkpt><trkpt lat="42.1220574" lon="12.9055534"><ele>911.8</ele><time>2026-04-04T13:42:01.798Z</time></trkpt><trkpt lat="42.122116" lon="12.9056542"><ele>907.1999999999999</ele><time>2026-04-04T13:42:02.798Z</time></trkpt><trkpt lat="42.1221776" lon="12.9057501"><ele>902.5999999999999</ele><time>2026-04-04T13:42:03.798Z</time></trkpt><trkpt lat="42.1222516" lon="12.905836"><ele>898.0</ele><time>2026-04-04T13:42:04.798Z</time></trkpt><trkpt lat="42.1223341" lon="12.9059279"><ele>897.0</ele><time>2026-04-04T13:42:05.798Z</time></trkpt><trkpt lat="42.122418" lon="12.9060063"><ele>896.0</ele><time>2026-04-04T13:42:06.798Z</time></trkpt><trkpt lat="42.122498" lon="12.9060736"><ele>895.0</ele><time>2026-04-04T13:42:07.798Z</time></trkpt><trkpt lat="42.1225776" lon="12.9061385"><ele>894.0</ele><time>2026-04-04T13:42:08.798Z</time></trkpt><trkpt lat="42.1226455" lon="12.9061999"><ele>893.0</ele><time>2026-04-04T13:42:09.798Z</time></trkpt><trkpt lat="42.1227096" lon="12.906268"><ele>893.0000000000001</ele><time>2026-04-04T13:42:10.797Z</time></trkpt><trkpt lat="42.122762" lon="12.9063489"><ele>893.0</ele><time>2026-04-04T13:42:11.798Z</time></trkpt><trkpt lat="42.1228037" lon="12.9064396"><ele>893.0</ele><time>2026-04-04T13:42:12.798Z</time></trkpt><trkpt lat="42.1228437" lon="12.9065271"><ele>893.0</ele><time>2026-04-04T13:42:13.798Z</time></trkpt><trkpt lat="42.1228582" lon="12.9066184"><ele>893.0000000000001</ele><time>2026-04-04T13:42:14.798Z</time></trkpt><trkpt lat="42.1228726" lon="12.9067029"><ele>893.0</ele><time>2026-04-04T13:42:15.798Z</time></trkpt><trkpt lat="42.1228607" lon="12.9068686"><ele>892.5714285714286</ele><time>2026-04-04T13:42:17.797Z</time></trkpt><trkpt lat="42.1228426" lon="12.9069555"><ele>892.1428571428571</ele><time>2026-04-04T13:42:18.798Z</time></trkpt><trkpt lat="42.1228166" lon="12.9070519"><ele>891.7142857142858</ele><time>2026-04-04T13:42:19.798Z</time></trkpt><trkpt lat="42.1227798" lon="12.9071414"><ele>891.2857142857142</ele><time>2026-04-04T13:42:20.798Z</time></trkpt><trkpt lat="42.122739" lon="12.9072189"><ele>890.8571428571428</ele><time>2026-04-04T13:42:21.798Z</time></trkpt><trkpt lat="42.1226849" lon="12.9072884"><ele>890.4285714285714</ele><time>2026-04-04T13:42:22.797Z</time></trkpt><trkpt lat="42.1226189" lon="12.9073549"><ele>890.0</ele><time>2026-04-04T13:42:23.798Z</time></trkpt><trkpt lat="42.1225494" lon="12.9074093"><ele>890.0000000000001</ele><time>2026-04-04T13:42:24.798Z</time></trkpt><trkpt lat="42.1224717" lon="12.9074618"><ele>890.0</ele><time>2026-04-04T13:42:25.798Z</time></trkpt><trkpt lat="42.1223975" lon="12.9075135"><ele>890.0</ele><time>2026-04-04T13:42:26.798Z</time></trkpt><trkpt lat="42.1223245" lon="12.9075655"><ele>890.0</ele><time>2026-04-04T13:42:27.798Z</time></trkpt><trkpt lat="42.1222524" lon="12.9076188"><ele>890.0000000000001</ele><time>2026-04-04T13:42:28.797Z</time></trkpt><trkpt lat="42.1221829" lon="12.9076766"><ele>890.0</ele><time>2026-04-04T13:42:29.798Z</time></trkpt><trkpt lat="42.1221184" lon="12.9077299"><ele>886.4285714285714</ele><time>2026-04-04T13:42:30.797Z</time></trkpt><trkpt lat="42.1220601" lon="12.9077873"><ele>882.8571428571428</ele><time>2026-04-04T13:42:31.797Z</time></trkpt><trkpt lat="42.1220009" lon="12.9078494"><ele>879.2857142857142</ele><time>2026-04-04T13:42:32.798Z</time></trkpt><trkpt lat="42.121958" lon="12.9079133"><ele>875.7142857142858</ele><time>2026-04-04T13:42:33.798Z</time></trkpt><trkpt lat="42.1219173" lon="12.9079896"><ele>872.1428571428571</ele><time>2026-04-04T13:42:34.798Z</time></trkpt><trkpt lat="42.1218913" lon="12.9080728"><ele>868.5714285714286</ele><time>2026-04-04T13:42:35.798Z</time></trkpt><trkpt lat="42.121872" lon="12.9081646"><ele>865.0</ele><time>2026-04-04T13:42:36.798Z</time></trkpt><trkpt lat="42.1218581" lon="12.9082652"><ele>864.9999999999999</ele><time>2026-04-04T13:42:37.798Z</time></trkpt><trkpt lat="42.1218511" lon="12.9083667"><ele>865.0</ele><time>2026-04-04T13:42:38.798Z</time></trkpt><trkpt lat="42.1218575" lon="12.9084777"><ele>865.0</ele><time>2026-04-04T13:42:39.798Z</time></trkpt><trkpt lat="42.121861" lon="12.9085842"><ele>865.0</ele><time>2026-04-04T13:42:40.798Z</time></trkpt><trkpt lat="42.1218734" lon="12.9087071"><ele>864.9999999999999</ele><time>2026-04-04T13:42:41.797Z</time></trkpt><trkpt lat="42.1218802" lon="12.9088067"><ele>865.0</ele><time>2026-04-04T13:42:42.798Z</time></trkpt><trkpt lat="42.1218875" lon="12.908902"><ele>864.1666666666666</ele><time>2026-04-04T13:42:43.798Z</time></trkpt><trkpt lat="42.1218974" lon="12.9090091"><ele>863.3333333333333</ele><time>2026-04-04T13:42:44.798Z</time></trkpt><trkpt lat="42.1219163" lon="12.9091062"><ele>862.5</ele><time>2026-04-04T13:42:45.798Z</time></trkpt><trkpt lat="42.1219292" lon="12.9092018"><ele>861.6666666666667</ele><time>2026-04-04T13:42:46.798Z</time></trkpt><trkpt lat="42.1219458" lon="12.9092882"><ele>860.8333333333334</ele><time>2026-04-04T13:42:47.798Z</time></trkpt><trkpt lat="42.1219737" lon="12.9094496"><ele>860.0</ele><time>2026-04-04T13:42:49.797Z</time></trkpt><trkpt lat="42.1219742" lon="12.9096079"><ele>859.1666666666667</ele><time>2026-04-04T13:42:51.798Z</time></trkpt><trkpt lat="42.1219584" lon="12.9097672"><ele>858.3333333333334</ele><time>2026-04-04T13:42:53.798Z</time></trkpt><trkpt lat="42.1219428" lon="12.9098672"><ele>857.5</ele><time>2026-04-04T13:42:54.798Z</time></trkpt><trkpt lat="42.12192" lon="12.9099722"><ele>856.6666666666667</ele><time>2026-04-04T13:42:55.798Z</time></trkpt><trkpt lat="42.1218926" lon="12.9100804"><ele>855.8333333333334</ele><time>2026-04-04T13:42:56.798Z</time></trkpt><trkpt lat="42.1218754" lon="12.9101937"><ele>855.0</ele><time>2026-04-04T13:42:57.798Z</time></trkpt><trkpt lat="42.1218739" lon="12.9103137"><ele>853.6</ele><time>2026-04-04T13:42:58.798Z</time></trkpt><trkpt lat="42.1218868" lon="12.9104496"><ele>852.2</ele><time>2026-04-04T13:42:59.798Z</time></trkpt><trkpt lat="42.1218966" lon="12.9105774"><ele>850.8</ele><time>2026-04-04T13:43:00.798Z</time></trkpt><trkpt lat="42.1219024" lon="12.9107047"><ele>849.4</ele><time>2026-04-04T13:43:01.798Z</time></trkpt><trkpt lat="42.1219143" lon="12.9108297"><ele>848.0</ele><time>2026-04-04T13:43:02.798Z</time></trkpt><trkpt lat="42.1219403" lon="12.9109476"><ele>845.4</ele><time>2026-04-04T13:43:03.798Z</time></trkpt><trkpt lat="42.1219735" lon="12.9110762"><ele>842.8</ele><time>2026-04-04T13:43:04.797Z</time></trkpt><trkpt lat="42.1220096" lon="12.911181"><ele>840.2</ele><time>2026-04-04T13:43:05.798Z</time></trkpt><trkpt lat="42.1220332" lon="12.9113332"><ele>837.6</ele><time>2026-04-04T13:43:06.798Z</time></trkpt><trkpt lat="42.1220596" lon="12.9114822"><ele>835.0</ele><time>2026-04-04T13:43:07.798Z</time></trkpt><trkpt lat="42.1220908" lon="12.9116681"><ele>832.5</ele><time>2026-04-04T13:43:08.798Z</time></trkpt><trkpt lat="42.1221111" lon="12.9118354"><ele>830.0</ele><time>2026-04-04T13:43:09.798Z</time></trkpt><trkpt lat="42.1221315" lon="12.9120008"><ele>827.5</ele><time>2026-04-04T13:43:10.798Z</time></trkpt><trkpt lat="42.1221518" lon="12.9121635"><ele>825.0</ele><time>2026-04-04T13:43:11.798Z</time></trkpt><trkpt lat="42.1221648" lon="12.9123194"><ele>825.0</ele><time>2026-04-04T13:43:12.798Z</time></trkpt><trkpt lat="42.1221789" lon="12.9124597"><ele>825.0</ele><time>2026-04-04T13:43:13.798Z</time></trkpt><trkpt lat="42.1221888" lon="12.9125836"><ele>825.0</ele><time>2026-04-04T13:43:14.798Z</time></trkpt><trkpt lat="42.1222035" lon="12.9127022"><ele>825.0</ele><time>2026-04-04T13:43:15.798Z</time></trkpt><trkpt lat="42.1222319" lon="12.9128249"><ele>825.0</ele><time>2026-04-04T13:43:16.798Z</time></trkpt><trkpt lat="42.122259" lon="12.9129295"><ele>825.0</ele><time>2026-04-04T13:43:17.798Z</time></trkpt><trkpt lat="42.1222832" lon="12.913024"><ele>825.0</ele><time>2026-04-04T13:43:18.798Z</time></trkpt><trkpt lat="42.1223074" lon="12.9131034"><ele>825.0</ele><time>2026-04-04T13:43:19.798Z</time></trkpt><trkpt lat="42.122337" lon="12.913222"><ele>825.0</ele><time>2026-04-04T13:43:21.798Z</time></trkpt><trkpt lat="42.1223584" lon="12.9133173"><ele>825.0</ele><time>2026-04-04T13:43:24.798Z</time></trkpt><trkpt lat="42.122375" lon="12.9134038"><ele>825.0</ele><time>2026-04-04T13:43:27.797Z</time></trkpt><trkpt lat="42.1223467" lon="12.9134973"><ele>825.0</ele><time>2026-04-04T13:44:10.798Z</time></trkpt><trkpt lat="42.1223868" lon="12.9135857"><ele>826.2</ele><time>2026-04-04T13:44:54.798Z</time></trkpt><trkpt lat="42.1224285" lon="12.9137048"><ele>827.4</ele><time>2026-04-04T13:44:56.797Z</time></trkpt><trkpt lat="42.1224703" lon="12.9138352"><ele>828.5999999999999</ele><time>2026-04-04T13:44:58.798Z</time></trkpt><trkpt lat="42.1225206" lon="12.9139575"><ele>829.8</ele><time>2026-04-04T13:45:00.798Z</time></trkpt><trkpt lat="42.1225669" lon="12.9140853"><ele>831.0</ele><time>2026-04-04T13:45:02.798Z</time></trkpt><trkpt lat="42.1225999" lon="12.9142294"><ele>829.5</ele><time>2026-04-04T13:45:04.797Z</time></trkpt><trkpt lat="42.122631" lon="12.9143789"><ele>828.0</ele><time>2026-04-04T13:45:06.798Z</time></trkpt><trkpt lat="42.1226402" lon="12.9145284"><ele>826.5</ele><time>2026-04-04T13:45:08.798Z</time></trkpt><trkpt lat="42.122665" lon="12.9146611"><ele>825.0</ele><time>2026-04-04T13:45:10.798Z</time></trkpt><trkpt lat="42.122733" lon="12.9147971"><ele>825.0</ele><time>2026-04-04T13:45:12.797Z</time></trkpt><trkpt lat="42.1228065" lon="12.9149332"><ele>825.0</ele><time>2026-04-04T13:45:14.798Z</time></trkpt><trkpt lat="42.1228756" lon="12.9150669"><ele>825.0</ele><time>2026-04-04T13:45:16.798Z</time></trkpt><trkpt lat="42.1229363" lon="12.9152096"><ele>825.0</ele><time>2026-04-04T13:45:18.798Z</time></trkpt><trkpt lat="42.1229979" lon="12.9153598"><ele>824.8333333333334</ele><time>2026-04-04T13:45:20.798Z</time></trkpt><trkpt lat="42.1230259" lon="12.915452"><ele>824.6666666666667</ele><time>2026-04-04T13:45:21.797Z</time></trkpt><trkpt lat="42.1230504" lon="12.915546"><ele>824.5</ele><time>2026-04-04T13:45:22.798Z</time></trkpt><trkpt lat="42.1230683" lon="12.9156354"><ele>824.3333333333334</ele><time>2026-04-04T13:45:23.798Z</time></trkpt><trkpt lat="42.1230763" lon="12.9157793"><ele>824.1666666666667</ele><time>2026-04-04T13:45:25.798Z</time></trkpt><trkpt lat="42.1230453" lon="12.9159299"><ele>824.0</ele><time>2026-04-04T13:45:27.798Z</time></trkpt><trkpt lat="42.123007" lon="12.916007"><ele>824.0</ele><time>2026-04-04T13:45:28.798Z</time></trkpt><trkpt lat="42.1229413" lon="12.916095"><ele>824.0</ele><time>2026-04-04T13:45:29.798Z</time></trkpt><trkpt lat="42.1228799" lon="12.9161865"><ele>824.0</ele><time>2026-04-04T13:45:30.798Z</time></trkpt><trkpt lat="42.122793" lon="12.9163172"><ele>824.0</ele><time>2026-04-04T13:45:31.798Z</time></trkpt><trkpt lat="42.1227078" lon="12.9164515"><ele>824.0</ele><time>2026-04-04T13:45:32.797Z</time></trkpt><trkpt lat="42.1226236" lon="12.9165763"><ele>824.0</ele><time>2026-04-04T13:45:33.798Z</time></trkpt><trkpt lat="42.1225482" lon="12.9166959"><ele>824.0</ele><time>2026-04-04T13:45:34.798Z</time></trkpt><trkpt lat="42.122486" lon="12.9167858"><ele>824.0</ele><time>2026-04-04T13:45:35.798Z</time></trkpt><trkpt lat="42.1224289" lon="12.9168702"><ele>824.0</ele><time>2026-04-04T13:45:36.798Z</time></trkpt><trkpt lat="42.1223772" lon="12.9169558"><ele>824.0</ele><time>2026-04-04T13:45:37.798Z</time></trkpt><trkpt lat="42.1223282" lon="12.9170393"><ele>824.0000000000001</ele><time>2026-04-04T13:45:38.798Z</time></trkpt><trkpt lat="42.1222833" lon="12.9171098"><ele>824.0</ele><time>2026-04-04T13:45:39.798Z</time></trkpt><trkpt lat="42.1222181" lon="12.9171972"><ele>824.0</ele><time>2026-04-04T13:45:41.798Z</time></trkpt><trkpt lat="42.1221424" lon="12.9172297"><ele>824.0</ele><time>2026-04-04T13:45:43.798Z</time></trkpt><trkpt lat="42.1220265" lon="12.9171779"><ele>824.0000000000001</ele><time>2026-04-04T13:45:45.798Z</time></trkpt><trkpt lat="42.121953" lon="12.9171649"><ele>824.0</ele><time>2026-04-04T13:45:46.798Z</time></trkpt><trkpt lat="42.1218808" lon="12.9171562"><ele>824.0</ele><time>2026-04-04T13:45:47.798Z</time></trkpt><trkpt lat="42.1218014" lon="12.9171573"><ele>824.0</ele><time>2026-04-04T13:45:48.798Z</time></trkpt><trkpt lat="42.1217164" lon="12.9171682"><ele>824.0</ele><time>2026-04-04T13:45:49.798Z</time></trkpt><trkpt lat="42.1216285" lon="12.9171844"><ele>824.0</ele><time>2026-04-04T13:45:50.798Z</time></trkpt><trkpt lat="42.1215302" lon="12.9172039"><ele>824.0</ele><time>2026-04-04T13:45:51.798Z</time></trkpt><trkpt lat="42.1214275" lon="12.9172285"><ele>823.25</ele><time>2026-04-04T13:45:52.798Z</time></trkpt><trkpt lat="42.121316" lon="12.9172544"><ele>822.5</ele><time>2026-04-04T13:45:53.798Z</time></trkpt><trkpt lat="42.1211953" lon="12.9172799"><ele>821.75</ele><time>2026-04-04T13:45:54.798Z</time></trkpt><trkpt lat="42.1210695" lon="12.9172973"><ele>821.0</ele><time>2026-04-04T13:45:55.798Z</time></trkpt><trkpt lat="42.1209555" lon="12.9172822"><ele>821.0</ele><time>2026-04-04T13:45:56.798Z</time></trkpt><trkpt lat="42.1208483" lon="12.9172258"><ele>821.0</ele><time>2026-04-04T13:45:57.798Z</time></trkpt><trkpt lat="42.1207473" lon="12.9171316"><ele>821.0</ele><time>2026-04-04T13:45:58.798Z</time></trkpt><trkpt lat="42.1206339" lon="12.9170223"><ele>821.0</ele><time>2026-04-04T13:45:59.798Z</time></trkpt><trkpt lat="42.1205143" lon="12.9169114"><ele>822.3333333333334</ele><time>2026-04-04T13:46:00.798Z</time></trkpt><trkpt lat="42.1203879" lon="12.9168074"><ele>823.6666666666667</ele><time>2026-04-04T13:46:01.798Z</time></trkpt><trkpt lat="42.1202499" lon="12.916734"><ele>825.0</ele><time>2026-04-04T13:46:02.798Z</time></trkpt><trkpt lat="42.1200979" lon="12.9166844"><ele>821.5</ele><time>2026-04-04T13:46:03.798Z</time></trkpt><trkpt lat="42.1199525" lon="12.9166445"><ele>818.0</ele><time>2026-04-04T13:46:04.798Z</time></trkpt><trkpt lat="42.1198107" lon="12.9166075"><ele>814.5</ele><time>2026-04-04T13:46:05.798Z</time></trkpt><trkpt lat="42.1196725" lon="12.9165716"><ele>811.0</ele><time>2026-04-04T13:46:06.798Z</time></trkpt><trkpt lat="42.1195373" lon="12.916541"><ele>810.0</ele><time>2026-04-04T13:46:07.798Z</time></trkpt><trkpt lat="42.119404" lon="12.916511"><ele>809.0</ele><time>2026-04-04T13:46:08.798Z</time></trkpt><trkpt lat="42.1192764" lon="12.9165019"><ele>808.0</ele><time>2026-04-04T13:46:09.798Z</time></trkpt><trkpt lat="42.1191479" lon="12.9165236"><ele>807.0</ele><time>2026-04-04T13:46:10.798Z</time></trkpt><trkpt lat="42.1190408" lon="12.916601"><ele>804.5</ele><time>2026-04-04T13:46:11.798Z</time></trkpt><trkpt lat="42.1189517" lon="12.9167194"><ele>802.0</ele><time>2026-04-04T13:46:12.798Z</time></trkpt><trkpt lat="42.118882" lon="12.9168811"><ele>799.5</ele><time>2026-04-04T13:46:13.798Z</time></trkpt><trkpt lat="42.1188409" lon="12.9170681"><ele>797.0</ele><time>2026-04-04T13:46:14.798Z</time></trkpt><trkpt lat="42.1188195" lon="12.9172609"><ele>797.0</ele><time>2026-04-04T13:46:15.797Z</time></trkpt><trkpt lat="42.118797" lon="12.9174388"><ele>797.0</ele><time>2026-04-04T13:46:16.798Z</time></trkpt><trkpt lat="42.1187827" lon="12.9175997"><ele>797.0</ele><time>2026-04-04T13:46:17.797Z</time></trkpt><trkpt lat="42.1187586" lon="12.9177331"><ele>797.0</ele><time>2026-04-04T13:46:18.798Z</time></trkpt><trkpt lat="42.118709" lon="12.9178373"><ele>797.0</ele><time>2026-04-04T13:46:19.798Z</time></trkpt><trkpt lat="42.1186296" lon="12.9179017"><ele>799.8</ele><time>2026-04-04T13:46:20.798Z</time></trkpt><trkpt lat="42.1185205" lon="12.9179393"><ele>802.6</ele><time>2026-04-04T13:46:21.798Z</time></trkpt><trkpt lat="42.1184066" lon="12.9179515"><ele>805.4</ele><time>2026-04-04T13:46:22.797Z</time></trkpt><trkpt lat="42.118303" lon="12.9179102"><ele>808.1999999999999</ele><time>2026-04-04T13:46:23.798Z</time></trkpt><trkpt lat="42.1182133" lon="12.9178141"><ele>811.0</ele><time>2026-04-04T13:46:24.798Z</time></trkpt><trkpt lat="42.1181361" lon="12.9176742"><ele>812.0</ele><time>2026-04-04T13:46:25.798Z</time></trkpt><trkpt lat="42.1180586" lon="12.9175022"><ele>813.0</ele><time>2026-04-04T13:46:26.798Z</time></trkpt><trkpt lat="42.1179722" lon="12.9173127"><ele>814.0</ele><time>2026-04-04T13:46:27.798Z</time></trkpt><trkpt lat="42.1178858" lon="12.917111"><ele>814.0</ele><time>2026-04-04T13:46:28.797Z</time></trkpt><trkpt lat="42.1177977" lon="12.9169055"><ele>814.0</ele><time>2026-04-04T13:46:29.798Z</time></trkpt><trkpt lat="42.1177121" lon="12.9167025"><ele>814.0</ele><time>2026-04-04T13:46:30.798Z</time></trkpt><trkpt lat="42.1176257" lon="12.9165008"><ele>818.3333333333333</ele><time>2026-04-04T13:46:31.798Z</time></trkpt><trkpt lat="42.1175413" lon="12.9163042"><ele>822.6666666666667</ele><time>2026-04-04T13:46:32.798Z</time></trkpt><trkpt lat="42.1174605" lon="12.9161091"><ele>827.0</ele><time>2026-04-04T13:46:33.798Z</time></trkpt><trkpt lat="42.1173888" lon="12.9159204"><ele>823.3333333333334</ele><time>2026-04-04T13:46:34.798Z</time></trkpt><trkpt lat="42.1173247" lon="12.9157297"><ele>819.6666666666667</ele><time>2026-04-04T13:46:35.798Z</time></trkpt><trkpt lat="42.1172616" lon="12.9155404"><ele>816.0</ele><time>2026-04-04T13:46:36.798Z</time></trkpt><trkpt lat="42.1171997" lon="12.9153559"><ele>816.0</ele><time>2026-04-04T13:46:37.798Z</time></trkpt><trkpt lat="42.1171416" lon="12.9151718"><ele>816.0</ele><time>2026-04-04T13:46:38.798Z</time></trkpt><trkpt lat="42.1170849" lon="12.9149916"><ele>816.0</ele><time>2026-04-04T13:46:39.798Z</time></trkpt><trkpt lat="42.1170262" lon="12.9148128"><ele>816.0</ele><time>2026-04-04T13:46:40.798Z</time></trkpt><trkpt lat="42.116963" lon="12.9146289"><ele>810.6666666666667</ele><time>2026-04-04T13:46:41.798Z</time></trkpt><trkpt lat="42.1168992" lon="12.9144451"><ele>805.3333333333334</ele><time>2026-04-04T13:46:42.798Z</time></trkpt><trkpt lat="42.1168345" lon="12.9142609"><ele>800.0</ele><time>2026-04-04T13:46:43.798Z</time></trkpt><trkpt lat="42.1167669" lon="12.91408"><ele>802.0</ele><time>2026-04-04T13:46:44.798Z</time></trkpt><trkpt lat="42.1166883" lon="12.9139013"><ele>804.0</ele><time>2026-04-04T13:46:45.798Z</time></trkpt><trkpt lat="42.1165991" lon="12.9137347"><ele>806.0</ele><time>2026-04-04T13:46:46.798Z</time></trkpt><trkpt lat="42.1164992" lon="12.9135822"><ele>806.0</ele><time>2026-04-04T13:46:47.798Z</time></trkpt><trkpt lat="42.1163872" lon="12.9134462"><ele>806.0</ele><time>2026-04-04T13:46:48.797Z</time></trkpt><trkpt lat="42.1162638" lon="12.9133328"><ele>806.0</ele><time>2026-04-04T13:46:49.798Z</time></trkpt><trkpt lat="42.1161316" lon="12.9132316"><ele>800.5</ele><time>2026-04-04T13:46:50.798Z</time></trkpt><trkpt lat="42.1159967" lon="12.9131467"><ele>795.0</ele><time>2026-04-04T13:46:51.798Z</time></trkpt><trkpt lat="42.1158647" lon="12.9130619"><ele>789.5</ele><time>2026-04-04T13:46:52.798Z</time></trkpt><trkpt lat="42.1157364" lon="12.9129883"><ele>784.0</ele><time>2026-04-04T13:46:53.798Z</time></trkpt><trkpt lat="42.1156124" lon="12.9129262"><ele>780.75</ele><time>2026-04-04T13:46:54.798Z</time></trkpt><trkpt lat="42.1154837" lon="12.9129131"><ele>777.5</ele><time>2026-04-04T13:46:55.798Z</time></trkpt><trkpt lat="42.1153537" lon="12.9129573"><ele>774.25</ele><time>2026-04-04T13:46:56.798Z</time></trkpt><trkpt lat="42.1152344" lon="12.9130485"><ele>771.0</ele><time>2026-04-04T13:46:57.798Z</time></trkpt><trkpt lat="42.115112" lon="12.9131553"><ele>771.0</ele><time>2026-04-04T13:46:58.798Z</time></trkpt><trkpt lat="42.1149957" lon="12.9132803"><ele>771.0</ele><time>2026-04-04T13:46:59.798Z</time></trkpt><trkpt lat="42.1148893" lon="12.9134199"><ele>771.0</ele><time>2026-04-04T13:47:00.798Z</time></trkpt><trkpt lat="42.1147897" lon="12.9135784"><ele>770.3333333333333</ele><time>2026-04-04T13:47:01.798Z</time></trkpt><trkpt lat="42.1147018" lon="12.9137497"><ele>769.6666666666666</ele><time>2026-04-04T13:47:02.798Z</time></trkpt><trkpt lat="42.1146097" lon="12.9139112"><ele>769.0</ele><time>2026-04-04T13:47:03.798Z</time></trkpt><trkpt lat="42.1145278" lon="12.9140724"><ele>769.0</ele><time>2026-04-04T13:47:04.798Z</time></trkpt><trkpt lat="42.1144503" lon="12.9142322"><ele>769.0</ele><time>2026-04-04T13:47:05.798Z</time></trkpt><trkpt lat="42.1143751" lon="12.914378"><ele>769.0</ele><time>2026-04-04T13:47:06.798Z</time></trkpt><trkpt lat="42.1143054" lon="12.9145053"><ele>769.0</ele><time>2026-04-04T13:47:07.798Z</time></trkpt><trkpt lat="42.1142375" lon="12.9146157"><ele>771.8333333333333</ele><time>2026-04-04T13:47:08.798Z</time></trkpt><trkpt lat="42.1141669" lon="12.9146944"><ele>774.6666666666666</ele><time>2026-04-04T13:47:09.798Z</time></trkpt><trkpt lat="42.1140891" lon="12.9147235"><ele>777.5</ele><time>2026-04-04T13:47:10.798Z</time></trkpt><trkpt lat="42.1140153" lon="12.9146958"><ele>780.3333333333333</ele><time>2026-04-04T13:47:11.798Z</time></trkpt><trkpt lat="42.1139604" lon="12.9146104"><ele>783.1666666666666</ele><time>2026-04-04T13:47:12.798Z</time></trkpt><trkpt lat="42.1139345" lon="12.9144924"><ele>786.0</ele><time>2026-04-04T13:47:13.798Z</time></trkpt><trkpt lat="42.1139204" lon="12.9143338"><ele>789.5</ele><time>2026-04-04T13:47:14.798Z</time></trkpt><trkpt lat="42.1139007" lon="12.9141482"><ele>793.0</ele><time>2026-04-04T13:47:15.798Z</time></trkpt><trkpt lat="42.1138858" lon="12.9139559"><ele>796.5</ele><time>2026-04-04T13:47:16.798Z</time></trkpt><trkpt lat="42.1138652" lon="12.9137678"><ele>800.0</ele><time>2026-04-04T13:47:17.798Z</time></trkpt><trkpt lat="42.1138388" lon="12.9135864"><ele>800.0</ele><time>2026-04-04T13:47:18.798Z</time></trkpt><trkpt lat="42.1137855" lon="12.9134098"><ele>800.0</ele><time>2026-04-04T13:47:19.798Z</time></trkpt><trkpt lat="42.1137143" lon="12.9132374"><ele>800.0</ele><time>2026-04-04T13:47:20.798Z</time></trkpt><trkpt lat="42.1136704" lon="12.9130497"><ele>800.0</ele><time>2026-04-04T13:47:21.798Z</time></trkpt><trkpt lat="42.1136451" lon="12.9128463"><ele>795.0</ele><time>2026-04-04T13:47:22.798Z</time></trkpt><trkpt lat="42.1136107" lon="12.9126398"><ele>790.0</ele><time>2026-04-04T13:47:23.797Z</time></trkpt><trkpt lat="42.1135534" lon="12.9124447"><ele>785.0</ele><time>2026-04-04T13:47:24.798Z</time></trkpt><trkpt lat="42.113488" lon="12.9122692"><ele>788.0</ele><time>2026-04-04T13:47:25.798Z</time></trkpt><trkpt lat="42.113406" lon="12.9121135"><ele>791.0</ele><time>2026-04-04T13:47:26.798Z</time></trkpt><trkpt lat="42.1133049" lon="12.9119945"><ele>794.0</ele><time>2026-04-04T13:47:27.797Z</time></trkpt><trkpt lat="42.1131881" lon="12.9119073"><ele>797.0</ele><time>2026-04-04T13:47:28.798Z</time></trkpt><trkpt lat="42.1130734" lon="12.9118321"><ele>793.0</ele><time>2026-04-04T13:47:29.798Z</time></trkpt><trkpt lat="42.1129846" lon="12.9117294"><ele>789.0</ele><time>2026-04-04T13:47:30.797Z</time></trkpt><trkpt lat="42.1129189" lon="12.911603"><ele>785.0</ele><time>2026-04-04T13:47:31.798Z</time></trkpt><trkpt lat="42.1128842" lon="12.9114488"><ele>781.0</ele><time>2026-04-04T13:47:32.798Z</time></trkpt><trkpt lat="42.1128885" lon="12.9112734"><ele>781.0</ele><time>2026-04-04T13:47:33.797Z</time></trkpt><trkpt lat="42.1129278" lon="12.9111026"><ele>781.0</ele><time>2026-04-04T13:47:34.798Z</time></trkpt><trkpt lat="42.1129769" lon="12.9109283"><ele>781.0</ele><time>2026-04-04T13:47:35.798Z</time></trkpt><trkpt lat="42.1130085" lon="12.910771"><ele>781.0</ele><time>2026-04-04T13:47:36.798Z</time></trkpt><trkpt lat="42.1130112" lon="12.9106215"><ele>777.5</ele><time>2026-04-04T13:47:37.798Z</time></trkpt><trkpt lat="42.1129726" lon="12.9104852"><ele>774.0</ele><time>2026-04-04T13:47:38.798Z</time></trkpt><trkpt lat="42.1128989" lon="12.9103878"><ele>770.5</ele><time>2026-04-04T13:47:39.798Z</time></trkpt><trkpt lat="42.1127877" lon="12.9103349"><ele>767.0</ele><time>2026-04-04T13:47:40.798Z</time></trkpt><trkpt lat="42.1126661" lon="12.9103195"><ele>767.0</ele><time>2026-04-04T13:47:41.798Z</time></trkpt><trkpt lat="42.1125487" lon="12.9103107"><ele>767.0</ele><time>2026-04-04T13:47:42.798Z</time></trkpt><trkpt lat="42.1124472" lon="12.9102809"><ele>767.0</ele><time>2026-04-04T13:47:43.798Z</time></trkpt><trkpt lat="42.1123767" lon="12.9102156"><ele>767.0</ele><time>2026-04-04T13:47:44.798Z</time></trkpt><trkpt lat="42.1123367" lon="12.9101109"><ele>767.0</ele><time>2026-04-04T13:47:45.798Z</time></trkpt><trkpt lat="42.1123231" lon="12.9099728"><ele>768.5</ele><time>2026-04-04T13:47:46.798Z</time></trkpt><trkpt lat="42.1122976" lon="12.9098081"><ele>770.0</ele><time>2026-04-04T13:47:47.798Z</time></trkpt><trkpt lat="42.1122396" lon="12.9096192"><ele>771.5</ele><time>2026-04-04T13:47:48.798Z</time></trkpt><trkpt lat="42.1121575" lon="12.9094432"><ele>773.0</ele><time>2026-04-04T13:47:49.798Z</time></trkpt><trkpt lat="42.1120758" lon="12.9092788"><ele>768.25</ele><time>2026-04-04T13:47:50.798Z</time></trkpt><trkpt lat="42.1119872" lon="12.9091353"><ele>763.5</ele><time>2026-04-04T13:47:51.798Z</time></trkpt><trkpt lat="42.1118778" lon="12.9090241"><ele>758.75</ele><time>2026-04-04T13:47:52.798Z</time></trkpt><trkpt lat="42.1117467" lon="12.9089417"><ele>754.0</ele><time>2026-04-04T13:47:53.798Z</time></trkpt><trkpt lat="42.1116078" lon="12.9088546"><ele>760.6666666666667</ele><time>2026-04-04T13:47:54.798Z</time></trkpt><trkpt lat="42.1114805" lon="12.9087335"><ele>767.3333333333334</ele><time>2026-04-04T13:47:55.798Z</time></trkpt><trkpt lat="42.1113474" lon="12.9086058"><ele>774.0</ele><time>2026-04-04T13:47:56.798Z</time></trkpt><trkpt lat="42.1112166" lon="12.9084753"><ele>765.3333333333334</ele><time>2026-04-04T13:47:57.798Z</time></trkpt><trkpt lat="42.1110861" lon="12.9083449"><ele>756.6666666666667</ele><time>2026-04-04T13:47:58.797Z</time></trkpt><trkpt lat="42.11096" lon="12.9082169"><ele>748.0</ele><time>2026-04-04T13:47:59.797Z</time></trkpt><trkpt lat="42.1108399" lon="12.9080886"><ele>753.75</ele><time>2026-04-04T13:48:00.797Z</time></trkpt><trkpt lat="42.1107194" lon="12.9079695"><ele>759.5</ele><time>2026-04-04T13:48:01.798Z</time></trkpt><trkpt lat="42.1105881" lon="12.9078752"><ele>765.25</ele><time>2026-04-04T13:48:02.798Z</time></trkpt><trkpt lat="42.1104529" lon="12.9078043"><ele>771.0</ele><time>2026-04-04T13:48:03.798Z</time></trkpt><trkpt lat="42.1103258" lon="12.9077275"><ele>771.0</ele><time>2026-04-04T13:48:04.798Z</time></trkpt><trkpt lat="42.1102129" lon="12.9076173"><ele>771.0</ele><time>2026-04-04T13:48:05.798Z</time></trkpt><trkpt lat="42.1101186" lon="12.9074666"><ele>771.0</ele><time>2026-04-04T13:48:06.798Z</time></trkpt><trkpt lat="42.1100254" lon="12.9073076"><ele>771.0</ele><time>2026-04-04T13:48:07.798Z</time></trkpt><trkpt lat="42.1099101" lon="12.9071594"><ele>770.3333333333333</ele><time>2026-04-04T13:48:08.798Z</time></trkpt><trkpt lat="42.1097924" lon="12.9070206"><ele>769.6666666666666</ele><time>2026-04-04T13:48:09.798Z</time></trkpt><trkpt lat="42.1096723" lon="12.9068764"><ele>769.0</ele><time>2026-04-04T13:48:10.798Z</time></trkpt><trkpt lat="42.1095659" lon="12.9067209"><ele>764.25</ele><time>2026-04-04T13:48:11.797Z</time></trkpt><trkpt lat="42.1094873" lon="12.9065541"><ele>759.5</ele><time>2026-04-04T13:48:12.798Z</time></trkpt><trkpt lat="42.109401" lon="12.9063913"><ele>754.75</ele><time>2026-04-04T13:48:13.798Z</time></trkpt><trkpt lat="42.1093093" lon="12.9062427"><ele>750.0</ele><time>2026-04-04T13:48:14.798Z</time></trkpt><trkpt lat="42.1091947" lon="12.9061153"><ele>752.0</ele><time>2026-04-04T13:48:15.798Z</time></trkpt><trkpt lat="42.1090547" lon="12.9060211"><ele>754.0</ele><time>2026-04-04T13:48:16.798Z</time></trkpt><trkpt lat="42.1089071" lon="12.9059544"><ele>756.0</ele><time>2026-04-04T13:48:17.798Z</time></trkpt><trkpt lat="42.1087531" lon="12.9058958"><ele>746.6666666666666</ele><time>2026-04-04T13:48:18.798Z</time></trkpt><trkpt lat="42.1085991" lon="12.9058305"><ele>737.3333333333333</ele><time>2026-04-04T13:48:19.798Z</time></trkpt><trkpt lat="42.1084589" lon="12.9057454"><ele>728.0</ele><time>2026-04-04T13:48:20.798Z</time></trkpt><trkpt lat="42.1083252" lon="12.905662"><ele>726.5</ele><time>2026-04-04T13:48:21.798Z</time></trkpt><trkpt lat="42.1081842" lon="12.905617"><ele>725.0</ele><time>2026-04-04T13:48:22.798Z</time></trkpt><trkpt lat="42.1080466" lon="12.9056109"><ele>723.5</ele><time>2026-04-04T13:48:23.798Z</time></trkpt><trkpt lat="42.1079197" lon="12.9056564"><ele>722.0</ele><time>2026-04-04T13:48:24.798Z</time></trkpt><trkpt lat="42.1078183" lon="12.9057462"><ele>722.0</ele><time>2026-04-04T13:48:25.798Z</time></trkpt><trkpt lat="42.1077275" lon="12.9058339"><ele>722.0</ele><time>2026-04-04T13:48:26.797Z</time></trkpt><trkpt lat="42.1076272" lon="12.9058857"><ele>722.0</ele><time>2026-04-04T13:48:27.798Z</time></trkpt><trkpt lat="42.1075281" lon="12.9058874"><ele>722.0</ele><time>2026-04-04T13:48:28.797Z</time></trkpt><trkpt lat="42.1074231" lon="12.9058202"><ele>722.0</ele><time>2026-04-04T13:48:29.798Z</time></trkpt><trkpt lat="42.1073066" lon="12.9057401"><ele>722.75</ele><time>2026-04-04T13:48:30.798Z</time></trkpt><trkpt lat="42.107188" lon="12.9056627"><ele>723.5</ele><time>2026-04-04T13:48:31.798Z</time></trkpt><trkpt lat="42.1070723" lon="12.9055993"><ele>724.25</ele><time>2026-04-04T13:48:32.798Z</time></trkpt><trkpt lat="42.1069495" lon="12.9055682"><ele>725.0</ele><time>2026-04-04T13:48:33.798Z</time></trkpt><trkpt lat="42.1068193" lon="12.905588"><ele>725.0</ele><time>2026-04-04T13:48:34.798Z</time></trkpt><trkpt lat="42.1066875" lon="12.9056329"><ele>725.0</ele><time>2026-04-04T13:48:35.798Z</time></trkpt><trkpt lat="42.1065521" lon="12.905681"><ele>725.0</ele><time>2026-04-04T13:48:36.798Z</time></trkpt><trkpt lat="42.1064158" lon="12.9057345"><ele>725.0</ele><time>2026-04-04T13:48:37.798Z</time></trkpt><trkpt lat="42.106283" lon="12.9058"><ele>722.5</ele><time>2026-04-04T13:48:38.798Z</time></trkpt><trkpt lat="42.10615" lon="12.9058726"><ele>720.0</ele><time>2026-04-04T13:48:39.798Z</time></trkpt><trkpt lat="42.1060116" lon="12.9059185"><ele>717.5</ele><time>2026-04-04T13:48:40.798Z</time></trkpt><trkpt lat="42.1058679" lon="12.9059368"><ele>715.0</ele><time>2026-04-04T13:48:41.798Z</time></trkpt><trkpt lat="42.1057283" lon="12.9059387"><ele>715.0</ele><time>2026-04-04T13:48:42.797Z</time></trkpt><trkpt lat="42.1055874" lon="12.9059245"><ele>715.0</ele><time>2026-04-04T13:48:43.798Z</time></trkpt><trkpt lat="42.105441" lon="12.9058909"><ele>715.0</ele><time>2026-04-04T13:48:44.798Z</time></trkpt><trkpt lat="42.1052971" lon="12.9058434"><ele>715.0</ele><time>2026-04-04T13:48:45.798Z</time></trkpt><trkpt lat="42.1051502" lon="12.9058021"><ele>715.0</ele><time>2026-04-04T13:48:46.798Z</time></trkpt><trkpt lat="42.1050038" lon="12.9057672"><ele>715.0</ele><time>2026-04-04T13:48:47.797Z</time></trkpt><trkpt lat="42.1048563" lon="12.9057399"><ele>715.0</ele><time>2026-04-04T13:48:48.798Z</time></trkpt><trkpt lat="42.1047103" lon="12.9057315"><ele>715.0</ele><time>2026-04-04T13:48:49.797Z</time></trkpt><trkpt lat="42.1045584" lon="12.9057348"><ele>713.5</ele><time>2026-04-04T13:48:50.798Z</time></trkpt><trkpt lat="42.1044101" lon="12.9057394"><ele>712.0</ele><time>2026-04-04T13:48:51.798Z</time></trkpt><trkpt lat="42.1042673" lon="12.9057479"><ele>710.5</ele><time>2026-04-04T13:48:52.798Z</time></trkpt><trkpt lat="42.1041266" lon="12.9057659"><ele>709.0</ele><time>2026-04-04T13:48:53.798Z</time></trkpt><trkpt lat="42.1039946" lon="12.9058017"><ele>709.5</ele><time>2026-04-04T13:48:54.798Z</time></trkpt><trkpt lat="42.1038659" lon="12.9058687"><ele>710.0</ele><time>2026-04-04T13:48:55.798Z</time></trkpt><trkpt lat="42.1037473" lon="12.9059748"><ele>710.5</ele><time>2026-04-04T13:48:56.798Z</time></trkpt><trkpt lat="42.1036499" lon="12.9061163"><ele>711.0</ele><time>2026-04-04T13:48:57.798Z</time></trkpt><trkpt lat="42.1035646" lon="12.9062698"><ele>711.0</ele><time>2026-04-04T13:48:58.798Z</time></trkpt><trkpt lat="42.1034803" lon="12.9064188"><ele>711.0</ele><time>2026-04-04T13:48:59.798Z</time></trkpt><trkpt lat="42.103395" lon="12.9065547"><ele>711.0</ele><time>2026-04-04T13:49:00.798Z</time></trkpt><trkpt lat="42.1033042" lon="12.9066678"><ele>711.0</ele><time>2026-04-04T13:49:01.798Z</time></trkpt><trkpt lat="42.1031962" lon="12.9067277"><ele>717.0</ele><time>2026-04-04T13:49:02.798Z</time></trkpt><trkpt lat="42.1030717" lon="12.9067482"><ele>723.0</ele><time>2026-04-04T13:49:03.798Z</time></trkpt><trkpt lat="42.1029291" lon="12.9067534"><ele>729.0</ele><time>2026-04-04T13:49:04.798Z</time></trkpt><trkpt lat="42.1027746" lon="12.9067618"><ele>735.0</ele><time>2026-04-04T13:49:05.798Z</time></trkpt><trkpt lat="42.1026166" lon="12.9067934"><ele>735.0</ele><time>2026-04-04T13:49:06.798Z</time></trkpt><trkpt lat="42.1024543" lon="12.9068445"><ele>735.0</ele><time>2026-04-04T13:49:07.798Z</time></trkpt><trkpt lat="42.1022939" lon="12.9068942"><ele>735.0</ele><time>2026-04-04T13:49:08.798Z</time></trkpt><trkpt lat="42.102139" lon="12.9069419"><ele>729.25</ele><time>2026-04-04T13:49:09.798Z</time></trkpt><trkpt lat="42.1019916" lon="12.9069898"><ele>723.5</ele><time>2026-04-04T13:49:10.798Z</time></trkpt><trkpt lat="42.1018468" lon="12.9070333"><ele>717.75</ele><time>2026-04-04T13:49:11.798Z</time></trkpt><trkpt lat="42.1017078" lon="12.9070748"><ele>712.0</ele><time>2026-04-04T13:49:12.798Z</time></trkpt><trkpt lat="42.1015755" lon="12.9071382"><ele>707.0</ele><time>2026-04-04T13:49:13.798Z</time></trkpt><trkpt lat="42.1014493" lon="12.9072332"><ele>702.0</ele><time>2026-04-04T13:49:14.798Z</time></trkpt><trkpt lat="42.1013271" lon="12.9073207"><ele>697.0</ele><time>2026-04-04T13:49:15.798Z</time></trkpt><trkpt lat="42.1011867" lon="12.9073871"><ele>692.0</ele><time>2026-04-04T13:49:16.798Z</time></trkpt><trkpt lat="42.1010344" lon="12.9074075"><ele>692.0</ele><time>2026-04-04T13:49:17.798Z</time></trkpt><trkpt lat="42.1008697" lon="12.9074185"><ele>692.0</ele><time>2026-04-04T13:49:18.798Z</time></trkpt><trkpt lat="42.1007049" lon="12.9074284"><ele>692.0</ele><time>2026-04-04T13:49:19.797Z</time></trkpt><trkpt lat="42.1005367" lon="12.9074333"><ele>688.3333333333333</ele><time>2026-04-04T13:49:20.798Z</time></trkpt><trkpt lat="42.1003747" lon="12.9074356"><ele>684.6666666666666</ele><time>2026-04-04T13:49:21.798Z</time></trkpt><trkpt lat="42.1002157" lon="12.9074372"><ele>681.0</ele><time>2026-04-04T13:49:22.798Z</time></trkpt><trkpt lat="42.1000615" lon="12.9074448"><ele>681.0</ele><time>2026-04-04T13:49:23.798Z</time></trkpt><trkpt lat="42.0999181" lon="12.9074581"><ele>681.0</ele><time>2026-04-04T13:49:24.798Z</time></trkpt><trkpt lat="42.0997783" lon="12.9074951"><ele>681.0</ele><time>2026-04-04T13:49:25.798Z</time></trkpt><trkpt lat="42.0996499" lon="12.9075545"><ele>681.0</ele><time>2026-04-04T13:49:26.798Z</time></trkpt><trkpt lat="42.0995414" lon="12.907638"><ele>677.4</ele><time>2026-04-04T13:49:27.798Z</time></trkpt><trkpt lat="42.0994466" lon="12.9077179"><ele>673.8</ele><time>2026-04-04T13:49:28.798Z</time></trkpt><trkpt lat="42.099417" lon="12.907856"><ele>670.1999999999999</ele><time>2026-04-04T13:49:29.798Z</time></trkpt><trkpt lat="42.0994048" lon="12.9080021"><ele>666.5999999999999</ele><time>2026-04-04T13:49:30.798Z</time></trkpt><trkpt lat="42.0994308" lon="12.9081624"><ele>663.0</ele><time>2026-04-04T13:49:31.798Z</time></trkpt><trkpt lat="42.0994935" lon="12.9083202"><ele>664.0</ele><time>2026-04-04T13:49:32.797Z</time></trkpt><trkpt lat="42.0995779" lon="12.9084733"><ele>665.0</ele><time>2026-04-04T13:49:33.797Z</time></trkpt><trkpt lat="42.0996857" lon="12.9086077"><ele>666.0</ele><time>2026-04-04T13:49:34.798Z</time></trkpt><trkpt lat="42.0998057" lon="12.9087283"><ele>667.0</ele><time>2026-04-04T13:49:35.798Z</time></trkpt><trkpt lat="42.0999291" lon="12.9088357"><ele>667.0</ele><time>2026-04-04T13:49:36.798Z</time></trkpt><trkpt lat="42.1000569" lon="12.9089302"><ele>667.0</ele><time>2026-04-04T13:49:37.797Z</time></trkpt><trkpt lat="42.1002001" lon="12.9089767"><ele>667.0</ele><time>2026-04-04T13:49:38.798Z</time></trkpt><trkpt lat="42.1003355" lon="12.9090132"><ele>667.0</ele><time>2026-04-04T13:49:39.798Z</time></trkpt><trkpt lat="42.1004675" lon="12.9090519"><ele>667.0</ele><time>2026-04-04T13:49:40.798Z</time></trkpt><trkpt lat="42.1005933" lon="12.9090919"><ele>667.0</ele><time>2026-04-04T13:49:41.798Z</time></trkpt><trkpt lat="42.1007122" lon="12.9091579"><ele>667.0</ele><time>2026-04-04T13:49:42.798Z</time></trkpt><trkpt lat="42.1008288" lon="12.9092396"><ele>667.0</ele><time>2026-04-04T13:49:43.798Z</time></trkpt><trkpt lat="42.1009431" lon="12.9093441"><ele>664.25</ele><time>2026-04-04T13:49:44.798Z</time></trkpt><trkpt lat="42.1010527" lon="12.9094698"><ele>661.5</ele><time>2026-04-04T13:49:45.798Z</time></trkpt><trkpt lat="42.1011608" lon="12.9096088"><ele>658.75</ele><time>2026-04-04T13:49:46.798Z</time></trkpt><trkpt lat="42.1012737" lon="12.9097505"><ele>656.0</ele><time>2026-04-04T13:49:47.798Z</time></trkpt><trkpt lat="42.1013906" lon="12.9098972"><ele>656.0</ele><time>2026-04-04T13:49:48.797Z</time></trkpt><trkpt lat="42.1015101" lon="12.9100426"><ele>656.0</ele><time>2026-04-04T13:49:49.798Z</time></trkpt><trkpt lat="42.1016291" lon="12.9101944"><ele>656.0</ele><time>2026-04-04T13:49:50.798Z</time></trkpt><trkpt lat="42.1017382" lon="12.9103438"><ele>655.0</ele><time>2026-04-04T13:49:51.798Z</time></trkpt><trkpt lat="42.101842" lon="12.9104751"><ele>654.0</ele><time>2026-04-04T13:49:52.798Z</time></trkpt><trkpt lat="42.1019518" lon="12.9105852"><ele>653.0</ele><time>2026-04-04T13:49:53.798Z</time></trkpt><trkpt lat="42.1020717" lon="12.9106718"><ele>652.0</ele><time>2026-04-04T13:49:54.798Z</time></trkpt><trkpt lat="42.1022069" lon="12.91073"><ele>652.0</ele><time>2026-04-04T13:49:55.798Z</time></trkpt><trkpt lat="42.1023429" lon="12.9107862"><ele>652.0</ele><time>2026-04-04T13:49:56.798Z</time></trkpt><trkpt lat="42.1024776" lon="12.910849"><ele>652.0</ele><time>2026-04-04T13:49:57.798Z</time></trkpt><trkpt lat="42.1026043" lon="12.9109004"><ele>652.0</ele><time>2026-04-04T13:49:58.798Z</time></trkpt><trkpt lat="42.1027094" lon="12.9109467"><ele>651.6</ele><time>2026-04-04T13:49:59.798Z</time></trkpt><trkpt lat="42.1028076" lon="12.9110045"><ele>651.2</ele><time>2026-04-04T13:50:00.798Z</time></trkpt><trkpt lat="42.1028529" lon="12.9111168"><ele>650.8</ele><time>2026-04-04T13:50:01.798Z</time></trkpt><trkpt lat="42.1028717" lon="12.9112459"><ele>650.4</ele><time>2026-04-04T13:50:02.798Z</time></trkpt><trkpt lat="42.102837" lon="12.9113848"><ele>650.0</ele><time>2026-04-04T13:50:03.798Z</time></trkpt><trkpt lat="42.1027808" lon="12.9115258"><ele>650.0</ele><time>2026-04-04T13:50:04.797Z</time></trkpt><trkpt lat="42.1027322" lon="12.9116669"><ele>650.0</ele><time>2026-04-04T13:50:05.798Z</time></trkpt><trkpt lat="42.1027163" lon="12.9118113"><ele>650.0</ele><time>2026-04-04T13:50:06.798Z</time></trkpt><trkpt lat="42.102748" lon="12.9119658"><ele>650.0</ele><time>2026-04-04T13:50:07.798Z</time></trkpt><trkpt lat="42.1027989" lon="12.9121262"><ele>647.75</ele><time>2026-04-04T13:50:08.798Z</time></trkpt><trkpt lat="42.1028582" lon="12.9123054"><ele>645.5</ele><time>2026-04-04T13:50:09.798Z</time></trkpt><trkpt lat="42.1029268" lon="12.9124697"><ele>643.25</ele><time>2026-04-04T13:50:10.798Z</time></trkpt><trkpt lat="42.1030057" lon="12.9126233"><ele>641.0</ele><time>2026-04-04T13:50:11.798Z</time></trkpt><trkpt lat="42.1030845" lon="12.912775"><ele>641.0</ele><time>2026-04-04T13:50:12.798Z</time></trkpt><trkpt lat="42.1031482" lon="12.9129281"><ele>641.0</ele><time>2026-04-04T13:50:13.797Z</time></trkpt><trkpt lat="42.1031866" lon="12.9130875"><ele>641.0</ele><time>2026-04-04T13:50:14.798Z</time></trkpt><trkpt lat="42.103215" lon="12.9132376"><ele>641.0</ele><time>2026-04-04T13:50:15.798Z</time></trkpt><trkpt lat="42.1032638" lon="12.9133708"><ele>644.1666666666666</ele><time>2026-04-04T13:50:16.798Z</time></trkpt><trkpt lat="42.103346" lon="12.9134656"><ele>647.3333333333333</ele><time>2026-04-04T13:50:17.798Z</time></trkpt><trkpt lat="42.1034381" lon="12.9135247"><ele>650.5</ele><time>2026-04-04T13:50:18.798Z</time></trkpt><trkpt lat="42.103513" lon="12.9135839"><ele>653.6666666666666</ele><time>2026-04-04T13:50:19.798Z</time></trkpt><trkpt lat="42.1035631" lon="12.9136662"><ele>656.8333333333334</ele><time>2026-04-04T13:50:20.798Z</time></trkpt><trkpt lat="42.103575" lon="12.9137604"><ele>660.0</ele><time>2026-04-04T13:50:21.798Z</time></trkpt><trkpt lat="42.1035579" lon="12.9138591"><ele>660.0</ele><time>2026-04-04T13:50:22.797Z</time></trkpt><trkpt lat="42.1034973" lon="12.9139293"><ele>660.0</ele><time>2026-04-04T13:50:23.798Z</time></trkpt><trkpt lat="42.1034098" lon="12.9139491"><ele>660.0</ele><time>2026-04-04T13:50:24.798Z</time></trkpt><trkpt lat="42.1033075" lon="12.9139525"><ele>660.0</ele><time>2026-04-04T13:50:25.798Z</time></trkpt><trkpt lat="42.1032008" lon="12.9139419"><ele>660.0</ele><time>2026-04-04T13:50:26.798Z</time></trkpt><trkpt lat="42.1031037" lon="12.9139104"><ele>660.75</ele><time>2026-04-04T13:50:27.798Z</time></trkpt><trkpt lat="42.1030124" lon="12.9138285"><ele>661.5</ele><time>2026-04-04T13:50:28.798Z</time></trkpt><trkpt lat="42.102946" lon="12.9137098"><ele>662.25</ele><time>2026-04-04T13:50:29.798Z</time></trkpt><trkpt lat="42.1028774" lon="12.9135873"><ele>663.0</ele><time>2026-04-04T13:50:30.798Z</time></trkpt><trkpt lat="42.1027774" lon="12.9134803"><ele>658.5</ele><time>2026-04-04T13:50:31.798Z</time></trkpt><trkpt lat="42.1026517" lon="12.9133929"><ele>654.0</ele><time>2026-04-04T13:50:32.798Z</time></trkpt><trkpt lat="42.1025172" lon="12.9133205"><ele>649.5</ele><time>2026-04-04T13:50:33.798Z</time></trkpt><trkpt lat="42.1023725" lon="12.9132584"><ele>645.0</ele><time>2026-04-04T13:50:34.797Z</time></trkpt><trkpt lat="42.1022203" lon="12.9132045"><ele>645.0</ele><time>2026-04-04T13:50:35.798Z</time></trkpt><trkpt lat="42.1020666" lon="12.9131554"><ele>645.0</ele><time>2026-04-04T13:50:36.798Z</time></trkpt><trkpt lat="42.1019176" lon="12.9130962"><ele>645.0</ele><time>2026-04-04T13:50:37.798Z</time></trkpt><trkpt lat="42.1017709" lon="12.9130242"><ele>645.0</ele><time>2026-04-04T13:50:38.798Z</time></trkpt><trkpt lat="42.1016318" lon="12.912945"><ele>645.0</ele><time>2026-04-04T13:50:39.798Z</time></trkpt><trkpt lat="42.1014905" lon="12.9128792"><ele>645.0</ele><time>2026-04-04T13:50:40.798Z</time></trkpt><trkpt lat="42.1013442" lon="12.9128288"><ele>645.0</ele><time>2026-04-04T13:50:41.798Z</time></trkpt><trkpt lat="42.1011869" lon="12.9127987"><ele>645.0</ele><time>2026-04-04T13:50:42.797Z</time></trkpt><trkpt lat="42.1010309" lon="12.9127841"><ele>645.0</ele><time>2026-04-04T13:50:43.797Z</time></trkpt><trkpt lat="42.1008815" lon="12.9127744"><ele>640.6666666666666</ele><time>2026-04-04T13:50:44.798Z</time></trkpt><trkpt lat="42.1007329" lon="12.9127645"><ele>636.3333333333333</ele><time>2026-04-04T13:50:45.798Z</time></trkpt><trkpt lat="42.1005803" lon="12.9127652"><ele>632.0</ele><time>2026-04-04T13:50:46.798Z</time></trkpt><trkpt lat="42.1004295" lon="12.9127936"><ele>632.0</ele><time>2026-04-04T13:50:47.798Z</time></trkpt><trkpt lat="42.1002803" lon="12.912846"><ele>632.0</ele><time>2026-04-04T13:50:48.798Z</time></trkpt><trkpt lat="42.1001289" lon="12.9129116"><ele>632.0</ele><time>2026-04-04T13:50:49.798Z</time></trkpt><trkpt lat="42.0999857" lon="12.9129865"><ele>627.0</ele><time>2026-04-04T13:50:50.798Z</time></trkpt><trkpt lat="42.099855" lon="12.9130664"><ele>622.0</ele><time>2026-04-04T13:50:51.798Z</time></trkpt><trkpt lat="42.0997296" lon="12.9131486"><ele>617.0</ele><time>2026-04-04T13:50:52.798Z</time></trkpt><trkpt lat="42.0996195" lon="12.9132269"><ele>612.0</ele><time>2026-04-04T13:50:53.798Z</time></trkpt><trkpt lat="42.0995202" lon="12.9133181"><ele>612.25</ele><time>2026-04-04T13:50:54.798Z</time></trkpt><trkpt lat="42.0994331" lon="12.9134311"><ele>612.5</ele><time>2026-04-04T13:50:55.797Z</time></trkpt><trkpt lat="42.0993886" lon="12.9135913"><ele>612.75</ele><time>2026-04-04T13:50:56.798Z</time></trkpt><trkpt lat="42.0993705" lon="12.9137673"><ele>613.0</ele><time>2026-04-04T13:50:57.798Z</time></trkpt><trkpt lat="42.0993818" lon="12.9139581"><ele>613.0</ele><time>2026-04-04T13:50:58.798Z</time></trkpt><trkpt lat="42.0993856" lon="12.9141514"><ele>613.0</ele><time>2026-04-04T13:50:59.798Z</time></trkpt><trkpt lat="42.0993774" lon="12.9143356"><ele>613.0</ele><time>2026-04-04T13:51:00.798Z</time></trkpt><trkpt lat="42.0993291" lon="12.9145102"><ele>613.0</ele><time>2026-04-04T13:51:01.798Z</time></trkpt><trkpt lat="42.0993133" lon="12.9146988"><ele>612.75</ele><time>2026-04-04T13:51:02.797Z</time></trkpt><trkpt lat="42.0993398" lon="12.9148927"><ele>612.5</ele><time>2026-04-04T13:51:03.798Z</time></trkpt><trkpt lat="42.0993994" lon="12.9150696"><ele>612.25</ele><time>2026-04-04T13:51:04.797Z</time></trkpt><trkpt lat="42.099473" lon="12.9152437"><ele>612.0</ele><time>2026-04-04T13:51:05.798Z</time></trkpt><trkpt lat="42.099546" lon="12.9154125"><ele>612.0</ele><time>2026-04-04T13:51:06.798Z</time></trkpt><trkpt lat="42.0996165" lon="12.9155728"><ele>612.0</ele><time>2026-04-04T13:51:07.798Z</time></trkpt><trkpt lat="42.0996804" lon="12.915727"><ele>612.0</ele><time>2026-04-04T13:51:08.798Z</time></trkpt><trkpt lat="42.0997299" lon="12.9158843"><ele>612.0</ele><time>2026-04-04T13:51:09.798Z</time></trkpt><trkpt lat="42.0997765" lon="12.9160298"><ele>615.1666666666666</ele><time>2026-04-04T13:51:10.798Z</time></trkpt><trkpt lat="42.0997716" lon="12.9161377"><ele>618.3333333333334</ele><time>2026-04-04T13:51:11.798Z</time></trkpt><trkpt lat="42.0997406" lon="12.9162438"><ele>621.5</ele><time>2026-04-04T13:51:12.798Z</time></trkpt><trkpt lat="42.0996742" lon="12.9163046"><ele>624.6666666666667</ele><time>2026-04-04T13:51:13.798Z</time></trkpt><trkpt lat="42.0995832" lon="12.9162882"><ele>627.8333333333334</ele><time>2026-04-04T13:51:14.798Z</time></trkpt><trkpt lat="42.0994988" lon="12.9162187"><ele>631.0</ele><time>2026-04-04T13:51:15.798Z</time></trkpt><trkpt lat="42.0994056" lon="12.9161166"><ele>631.0</ele><time>2026-04-04T13:51:16.798Z</time></trkpt><trkpt lat="42.0993009" lon="12.9160277"><ele>631.0</ele><time>2026-04-04T13:51:17.797Z</time></trkpt><trkpt lat="42.0991791" lon="12.9159665"><ele>631.0</ele><time>2026-04-04T13:51:18.798Z</time></trkpt><trkpt lat="42.099044" lon="12.9159168"><ele>631.0</ele><time>2026-04-04T13:51:19.798Z</time></trkpt><trkpt lat="42.0988992" lon="12.9158664"><ele>623.3333333333334</ele><time>2026-04-04T13:51:20.798Z</time></trkpt><trkpt lat="42.0987469" lon="12.9158143"><ele>615.6666666666666</ele><time>2026-04-04T13:51:21.798Z</time></trkpt><trkpt lat="42.0986039" lon="12.9157457"><ele>608.0</ele><time>2026-04-04T13:51:22.798Z</time></trkpt><trkpt lat="42.0984758" lon="12.9156558"><ele>608.0</ele><time>2026-04-04T13:51:23.798Z</time></trkpt><trkpt lat="42.0983638" lon="12.9155483"><ele>608.0</ele><time>2026-04-04T13:51:24.798Z</time></trkpt><trkpt lat="42.0982436" lon="12.9154713"><ele>608.0</ele><time>2026-04-04T13:51:25.797Z</time></trkpt><trkpt lat="42.0981082" lon="12.9154377"><ele>608.0</ele><time>2026-04-04T13:51:26.798Z</time></trkpt><trkpt lat="42.0979692" lon="12.9154135"><ele>604.25</ele><time>2026-04-04T13:51:27.798Z</time></trkpt><trkpt lat="42.0978487" lon="12.9153933"><ele>600.5</ele><time>2026-04-04T13:51:28.798Z</time></trkpt><trkpt lat="42.0977254" lon="12.9153848"><ele>596.75</ele><time>2026-04-04T13:51:29.798Z</time></trkpt><trkpt lat="42.0976141" lon="12.9154034"><ele>593.0</ele><time>2026-04-04T13:51:30.798Z</time></trkpt><trkpt lat="42.0975465" lon="12.915512"><ele>593.0</ele><time>2026-04-04T13:51:31.797Z</time></trkpt><trkpt lat="42.0974959" lon="12.9156401"><ele>593.0</ele><time>2026-04-04T13:51:32.798Z</time></trkpt><trkpt lat="42.0974774" lon="12.9158045"><ele>593.0</ele><time>2026-04-04T13:51:33.797Z</time></trkpt><trkpt lat="42.0974936" lon="12.9159729"><ele>593.0</ele><time>2026-04-04T13:51:34.798Z</time></trkpt><trkpt lat="42.0975295" lon="12.9161332"><ele>593.5</ele><time>2026-04-04T13:51:35.797Z</time></trkpt><trkpt lat="42.0975501" lon="12.9162805"><ele>594.0</ele><time>2026-04-04T13:51:36.798Z</time></trkpt><trkpt lat="42.0975541" lon="12.9164288"><ele>594.5</ele><time>2026-04-04T13:51:37.797Z</time></trkpt><trkpt lat="42.097536" lon="12.9165799"><ele>595.0</ele><time>2026-04-04T13:51:38.798Z</time></trkpt><trkpt lat="42.0974651" lon="12.9167488"><ele>596.25</ele><time>2026-04-04T13:51:39.798Z</time></trkpt><trkpt lat="42.0974333" lon="12.9169498"><ele>597.5</ele><time>2026-04-04T13:51:40.798Z</time></trkpt><trkpt lat="42.0974033" lon="12.9171383"><ele>598.75</ele><time>2026-04-04T13:51:41.798Z</time></trkpt><trkpt lat="42.0973859" lon="12.9173319"><ele>600.0</ele><time>2026-04-04T13:51:42.797Z</time></trkpt><trkpt lat="42.0973868" lon="12.9175086"><ele>598.6</ele><time>2026-04-04T13:51:43.798Z</time></trkpt><trkpt lat="42.0974037" lon="12.9176544"><ele>597.2</ele><time>2026-04-04T13:51:44.798Z</time></trkpt><trkpt lat="42.0974209" lon="12.9177864"><ele>595.8</ele><time>2026-04-04T13:51:45.798Z</time></trkpt><trkpt lat="42.0974111" lon="12.9179044"><ele>594.4</ele><time>2026-04-04T13:51:46.798Z</time></trkpt><trkpt lat="42.0973541" lon="12.9180007"><ele>593.0</ele><time>2026-04-04T13:51:47.798Z</time></trkpt><trkpt lat="42.0972894" lon="12.9180737"><ele>593.0</ele><time>2026-04-04T13:51:48.798Z</time></trkpt><trkpt lat="42.0971561" lon="12.9180602"><ele>593.0</ele><time>2026-04-04T13:51:49.798Z</time></trkpt><trkpt lat="42.0970484" lon="12.9180135"><ele>593.0</ele><time>2026-04-04T13:51:50.798Z</time></trkpt><trkpt lat="42.096935" lon="12.917979"><ele>593.0</ele><time>2026-04-04T13:51:51.798Z</time></trkpt><trkpt lat="42.0968272" lon="12.9179751"><ele>593.0</ele><time>2026-04-04T13:51:52.798Z</time></trkpt><trkpt lat="42.0967151" lon="12.9180235"><ele>593.0</ele><time>2026-04-04T13:51:53.798Z</time></trkpt><trkpt lat="42.0966161" lon="12.9180952"><ele>593.0</ele><time>2026-04-04T13:51:54.798Z</time></trkpt><trkpt lat="42.0965051" lon="12.9181179"><ele>593.0</ele><time>2026-04-04T13:51:55.798Z</time></trkpt><trkpt lat="42.0963885" lon="12.9180894"><ele>595.0</ele><time>2026-04-04T13:51:56.797Z</time></trkpt><trkpt lat="42.0962776" lon="12.9180208"><ele>597.0</ele><time>2026-04-04T13:51:57.798Z</time></trkpt><trkpt lat="42.0961835" lon="12.9179066"><ele>599.0</ele><time>2026-04-04T13:51:58.798Z</time></trkpt><trkpt lat="42.0960893" lon="12.9177794"><ele>601.0</ele><time>2026-04-04T13:51:59.798Z</time></trkpt><trkpt lat="42.0959934" lon="12.9176658"><ele>601.0</ele><time>2026-04-04T13:52:00.798Z</time></trkpt><trkpt lat="42.0958971" lon="12.9175819"><ele>601.0</ele><time>2026-04-04T13:52:01.798Z</time></trkpt><trkpt lat="42.0957875" lon="12.9175513"><ele>601.0</ele><time>2026-04-04T13:52:02.798Z</time></trkpt><trkpt lat="42.0956624" lon="12.9175722"><ele>601.0</ele><time>2026-04-04T13:52:03.798Z</time></trkpt><trkpt lat="42.0955472" lon="12.9176081"><ele>600.2</ele><time>2026-04-04T13:52:04.798Z</time></trkpt><trkpt lat="42.0954348" lon="12.9176179"><ele>599.4000000000001</ele><time>2026-04-04T13:52:05.798Z</time></trkpt><trkpt lat="42.0953255" lon="12.9175959"><ele>598.6</ele><time>2026-04-04T13:52:06.798Z</time></trkpt><trkpt lat="42.0952278" lon="12.9175274"><ele>597.8000000000001</ele><time>2026-04-04T13:52:07.797Z</time></trkpt><trkpt lat="42.0951517" lon="12.9174412"><ele>597.0</ele><time>2026-04-04T13:52:08.798Z</time></trkpt><trkpt lat="42.095102" lon="12.9173585"><ele>594.75</ele><time>2026-04-04T13:52:09.798Z</time></trkpt><trkpt lat="42.0950982" lon="12.9172456"><ele>592.5</ele><time>2026-04-04T13:52:10.798Z</time></trkpt><trkpt lat="42.0951092" lon="12.9171196"><ele>590.25</ele><time>2026-04-04T13:52:11.798Z</time></trkpt><trkpt lat="42.0951949" lon="12.9169607"><ele>588.0</ele><time>2026-04-04T13:52:12.798Z</time></trkpt><trkpt lat="42.0952956" lon="12.9167936"><ele>592.3333333333334</ele><time>2026-04-04T13:52:13.798Z</time></trkpt><trkpt lat="42.0953924" lon="12.9166257"><ele>596.6666666666667</ele><time>2026-04-04T13:52:14.798Z</time></trkpt><trkpt lat="42.0954916" lon="12.9164097"><ele>601.0</ele><time>2026-04-04T13:52:15.798Z</time></trkpt><trkpt lat="42.0955825" lon="12.9162021"><ele>601.0</ele><time>2026-04-04T13:52:16.798Z</time></trkpt><trkpt lat="42.0956705" lon="12.9160043"><ele>601.0</ele><time>2026-04-04T13:52:17.798Z</time></trkpt><trkpt lat="42.0957562" lon="12.9158107"><ele>601.0</ele><time>2026-04-04T13:52:18.798Z</time></trkpt><trkpt lat="42.0958263" lon="12.9156179"><ele>595.0</ele><time>2026-04-04T13:52:19.798Z</time></trkpt><trkpt lat="42.0958836" lon="12.9154171"><ele>589.0</ele><time>2026-04-04T13:52:20.798Z</time></trkpt><trkpt lat="42.0959322" lon="12.9152178"><ele>583.0</ele><time>2026-04-04T13:52:21.797Z</time></trkpt><trkpt lat="42.0959835" lon="12.9150245"><ele>583.0</ele><time>2026-04-04T13:52:22.798Z</time></trkpt><trkpt lat="42.0960459" lon="12.9148313"><ele>583.0</ele><time>2026-04-04T13:52:23.798Z</time></trkpt><trkpt lat="42.096109" lon="12.9146393"><ele>583.0</ele><time>2026-04-04T13:52:24.798Z</time></trkpt><trkpt lat="42.0961665" lon="12.9144533"><ele>583.0</ele><time>2026-04-04T13:52:25.798Z</time></trkpt><trkpt lat="42.0962173" lon="12.9142649"><ele>583.0</ele><time>2026-04-04T13:52:26.798Z</time></trkpt><trkpt lat="42.0962585" lon="12.9140788"><ele>583.0</ele><time>2026-04-04T13:52:27.797Z</time></trkpt><trkpt lat="42.0962858" lon="12.9138982"><ele>583.0</ele><time>2026-04-04T13:52:28.798Z</time></trkpt><trkpt lat="42.0962995" lon="12.9137216"><ele>582.75</ele><time>2026-04-04T13:52:29.798Z</time></trkpt><trkpt lat="42.0962981" lon="12.9135539"><ele>582.5</ele><time>2026-04-04T13:52:30.797Z</time></trkpt><trkpt lat="42.0962657" lon="12.9133867"><ele>582.25</ele><time>2026-04-04T13:52:31.798Z</time></trkpt><trkpt lat="42.0962209" lon="12.913242"><ele>582.0</ele><time>2026-04-04T13:52:32.798Z</time></trkpt><trkpt lat="42.0961676" lon="12.9131255"><ele>582.0</ele><time>2026-04-04T13:52:33.798Z</time></trkpt><trkpt lat="42.0961051" lon="12.9130249"><ele>582.0</ele><time>2026-04-04T13:52:34.798Z</time></trkpt><trkpt lat="42.0960494" lon="12.9129257"><ele>582.0</ele><time>2026-04-04T13:52:35.798Z</time></trkpt><trkpt lat="42.0960048" lon="12.9128257"><ele>582.0</ele><time>2026-04-04T13:52:36.798Z</time></trkpt><trkpt lat="42.0959719" lon="12.9127286"><ele>582.0</ele><time>2026-04-04T13:52:37.798Z</time></trkpt><trkpt lat="42.0959423" lon="12.9126353"><ele>582.0</ele><time>2026-04-04T13:52:38.798Z</time></trkpt><trkpt lat="42.0959102" lon="12.9125429"><ele>583.8333333333334</ele><time>2026-04-04T13:52:39.797Z</time></trkpt><trkpt lat="42.0958777" lon="12.9124596"><ele>585.6666666666666</ele><time>2026-04-04T13:52:40.798Z</time></trkpt><trkpt lat="42.0958423" lon="12.9123749"><ele>587.5</ele><time>2026-04-04T13:52:41.798Z</time></trkpt><trkpt lat="42.0957868" lon="12.9122319"><ele>589.3333333333333</ele><time>2026-04-04T13:52:43.798Z</time></trkpt><trkpt lat="42.0957471" lon="12.9121232"><ele>591.1666666666666</ele><time>2026-04-04T13:52:45.798Z</time></trkpt><trkpt lat="42.0957268" lon="12.9120092"><ele>593.0</ele><time>2026-04-04T13:52:47.798Z</time></trkpt><trkpt lat="42.0957203" lon="12.9119229"><ele>593.0</ele><time>2026-04-04T13:52:48.798Z</time></trkpt><trkpt lat="42.0957131" lon="12.9118145"><ele>593.0</ele><time>2026-04-04T13:52:49.798Z</time></trkpt><trkpt lat="42.0956958" lon="12.9117027"><ele>593.0</ele><time>2026-04-04T13:52:50.798Z</time></trkpt><trkpt lat="42.095674" lon="12.911589"><ele>593.0</ele><time>2026-04-04T13:52:51.798Z</time></trkpt><trkpt lat="42.0956242" lon="12.9114695"><ele>593.0</ele><time>2026-04-04T13:52:52.798Z</time></trkpt><trkpt lat="42.0955316" lon="12.9113573"><ele>591.25</ele><time>2026-04-04T13:52:53.798Z</time></trkpt><trkpt lat="42.0954536" lon="12.9112313"><ele>589.5</ele><time>2026-04-04T13:52:54.798Z</time></trkpt><trkpt lat="42.0953658" lon="12.9111071"><ele>587.75</ele><time>2026-04-04T13:52:55.798Z</time></trkpt><trkpt lat="42.0952839" lon="12.9109857"><ele>586.0</ele><time>2026-04-04T13:52:56.798Z</time></trkpt><trkpt lat="42.095204" lon="12.9108655"><ele>584.75</ele><time>2026-04-04T13:52:57.798Z</time></trkpt><trkpt lat="42.0951345" lon="12.9107413"><ele>583.5</ele><time>2026-04-04T13:52:58.798Z</time></trkpt><trkpt lat="42.0950669" lon="12.9106124"><ele>582.25</ele><time>2026-04-04T13:52:59.798Z</time></trkpt><trkpt lat="42.0950025" lon="12.910486"><ele>581.0</ele><time>2026-04-04T13:53:00.798Z</time></trkpt><trkpt lat="42.0949387" lon="12.9103591"><ele>581.6</ele><time>2026-04-04T13:53:01.798Z</time></trkpt><trkpt lat="42.0948871" lon="12.9102252"><ele>582.2</ele><time>2026-04-04T13:53:02.798Z</time></trkpt><trkpt lat="42.0948432" lon="12.9100853"><ele>582.8</ele><time>2026-04-04T13:53:03.798Z</time></trkpt><trkpt lat="42.0948053" lon="12.9099532"><ele>583.4</ele><time>2026-04-04T13:53:04.797Z</time></trkpt><trkpt lat="42.0947815" lon="12.9098361"><ele>584.0</ele><time>2026-04-04T13:53:05.797Z</time></trkpt><trkpt lat="42.0947701" lon="12.9097295"><ele>584.0</ele><time>2026-04-04T13:53:06.798Z</time></trkpt><trkpt lat="42.0947516" lon="12.9096334"><ele>584.0</ele><time>2026-04-04T13:53:07.798Z</time></trkpt><trkpt lat="42.0947353" lon="12.9095463"><ele>584.0</ele><time>2026-04-04T13:53:08.798Z</time></trkpt><trkpt lat="42.0947262" lon="12.9094113"><ele>584.0</ele><time>2026-04-04T13:53:10.798Z</time></trkpt><trkpt lat="42.0947007" lon="12.9093287"><ele>584.0</ele><time>2026-04-04T13:53:13.798Z</time></trkpt><trkpt lat="42.0945976" lon="12.9094"><ele>584.0</ele><time>2026-04-04T13:54:00.798Z</time></trkpt><trkpt lat="42.0945216" lon="12.9094952"><ele>584.0</ele><time>2026-04-04T13:54:02.798Z</time></trkpt><trkpt lat="42.0944575" lon="12.9096371"><ele>584.0</ele><time>2026-04-04T13:54:04.798Z</time></trkpt><trkpt lat="42.0944206" lon="12.9097733"><ele>584.0</ele><time>2026-04-04T13:54:06.798Z</time></trkpt><trkpt lat="42.094409" lon="12.9099388"><ele>584.0</ele><time>2026-04-04T13:54:08.798Z</time></trkpt><trkpt lat="42.0944045" lon="12.910112"><ele>585.3333333333333</ele><time>2026-04-04T13:54:10.798Z</time></trkpt><trkpt lat="42.094403" lon="12.9102504"><ele>586.6666666666666</ele><time>2026-04-04T13:54:12.797Z</time></trkpt><trkpt lat="42.094407" lon="12.9103359"><ele>588.0</ele><time>2026-04-04T13:54:14.798Z</time></trkpt><trkpt lat="42.0944072" lon="12.9104497"><ele>589.3333333333334</ele><time>2026-04-04T13:54:16.798Z</time></trkpt><trkpt lat="42.0943676" lon="12.9105858"><ele>590.6666666666667</ele><time>2026-04-04T13:54:18.798Z</time></trkpt><trkpt lat="42.0943321" lon="12.9106601"><ele>592.0</ele><time>2026-04-04T13:54:19.798Z</time></trkpt><trkpt lat="42.0942931" lon="12.910731"><ele>592.0</ele><time>2026-04-04T13:54:20.797Z</time></trkpt><trkpt lat="42.0942256" lon="12.9108292"><ele>592.0</ele><time>2026-04-04T13:54:22.798Z</time></trkpt><trkpt lat="42.094173" lon="12.9108826"><ele>592.0</ele><time>2026-04-04T13:54:25.798Z</time></trkpt><trkpt lat="42.0942553" lon="12.91077"><ele>592.0</ele><time>2026-04-04T13:56:57.798Z</time></trkpt><trkpt lat="42.0942994" lon="12.9107037"><ele>592.0</ele><time>2026-04-04T13:56:58.798Z</time></trkpt><trkpt lat="42.0943446" lon="12.9106395"><ele>592.0</ele><time>2026-04-04T13:56:59.798Z</time></trkpt><trkpt lat="42.0944006" lon="12.9105065"><ele>592.0</ele><time>2026-04-04T13:57:01.798Z</time></trkpt><trkpt lat="42.09441" lon="12.9104133"><ele>592.0</ele><time>2026-04-04T13:57:03.798Z</time></trkpt><trkpt lat="42.0944239" lon="12.9103294"><ele>592.0</ele><time>2026-04-04T13:57:07.798Z</time></trkpt><trkpt lat="42.0944402" lon="12.9102159"><ele>592.0</ele><time>2026-04-04T13:59:43.798Z</time></trkpt><trkpt lat="42.0944141" lon="12.9101157"><ele>592.0</ele><time>2026-04-04T14:00:31.798Z</time></trkpt><trkpt lat="42.0944088" lon="12.9099814"><ele>592.0</ele><time>2026-04-04T14:00:33.798Z</time></trkpt><trkpt lat="42.0944147" lon="12.9098348"><ele>590.4</ele><time>2026-04-04T14:00:35.798Z</time></trkpt><trkpt lat="42.0944501" lon="12.9096937"><ele>588.8000000000001</ele><time>2026-04-04T14:00:37.798Z</time></trkpt><trkpt lat="42.0945095" lon="12.909559"><ele>587.2</ele><time>2026-04-04T14:00:39.797Z</time></trkpt><trkpt lat="42.0945703" lon="12.9094582"><ele>585.6</ele><time>2026-04-04T14:00:41.798Z</time></trkpt><trkpt lat="42.0946459" lon="12.9094045"><ele>584.0</ele><time>2026-04-04T14:00:43.798Z</time></trkpt><trkpt lat="42.0947091" lon="12.9094655"><ele>584.0</ele><time>2026-04-04T14:00:45.798Z</time></trkpt><trkpt lat="42.0947394" lon="12.9096368"><ele>584.0</ele><time>2026-04-04T14:00:47.798Z</time></trkpt><trkpt lat="42.0947571" lon="12.909754"><ele>584.0</ele><time>2026-04-04T14:00:48.798Z</time></trkpt><trkpt lat="42.094783" lon="12.9098742"><ele>584.0</ele><time>2026-04-04T14:00:49.798Z</time></trkpt><trkpt lat="42.0948081" lon="12.9099861"><ele>584.0</ele><time>2026-04-04T14:00:50.798Z</time></trkpt><trkpt lat="42.09484" lon="12.9101081"><ele>583.25</ele><time>2026-04-04T14:00:51.798Z</time></trkpt><trkpt lat="42.0948864" lon="12.9102417"><ele>582.5</ele><time>2026-04-04T14:00:52.798Z</time></trkpt><trkpt lat="42.0949404" lon="12.9103785"><ele>581.75</ele><time>2026-04-04T14:00:53.798Z</time></trkpt><trkpt lat="42.0950053" lon="12.9105195"><ele>581.0</ele><time>2026-04-04T14:00:54.798Z</time></trkpt><trkpt lat="42.0950791" lon="12.9106578"><ele>581.0</ele><time>2026-04-04T14:00:55.798Z</time></trkpt><trkpt lat="42.0951548" lon="12.9107909"><ele>581.0</ele><time>2026-04-04T14:00:56.798Z</time></trkpt><trkpt lat="42.095235" lon="12.9109223"><ele>581.0</ele><time>2026-04-04T14:00:57.798Z</time></trkpt><trkpt lat="42.0953162" lon="12.9110507"><ele>581.0</ele><time>2026-04-04T14:00:58.798Z</time></trkpt><trkpt lat="42.0953982" lon="12.9111677"><ele>582.0</ele><time>2026-04-04T14:00:59.798Z</time></trkpt><trkpt lat="42.0954748" lon="12.9112845"><ele>583.0</ele><time>2026-04-04T14:01:00.798Z</time></trkpt><trkpt lat="42.0955466" lon="12.9113979"><ele>584.0</ele><time>2026-04-04T14:01:01.797Z</time></trkpt><trkpt lat="42.0956047" lon="12.9115094"><ele>585.0</ele><time>2026-04-04T14:01:02.797Z</time></trkpt><trkpt lat="42.0956558" lon="12.9116382"><ele>586.0</ele><time>2026-04-04T14:01:03.798Z</time></trkpt><trkpt lat="42.0956887" lon="12.9117708"><ele>587.4</ele><time>2026-04-04T14:01:04.798Z</time></trkpt><trkpt lat="42.0957008" lon="12.9119067"><ele>588.8</ele><time>2026-04-04T14:01:05.798Z</time></trkpt><trkpt lat="42.0957059" lon="12.9120323"><ele>590.1999999999999</ele><time>2026-04-04T14:01:06.798Z</time></trkpt><trkpt lat="42.0957169" lon="12.912148"><ele>591.6</ele><time>2026-04-04T14:01:07.798Z</time></trkpt><trkpt lat="42.0957388" lon="12.9122399"><ele>593.0</ele><time>2026-04-04T14:01:08.798Z</time></trkpt><trkpt lat="42.0958177" lon="12.9123266"><ele>587.8</ele><time>2026-04-04T14:01:10.798Z</time></trkpt><trkpt lat="42.0958804" lon="12.912272"><ele>582.5999999999999</ele><time>2026-04-04T14:01:13.798Z</time></trkpt><trkpt lat="42.0959018" lon="12.9121755"><ele>577.4000000000001</ele><time>2026-04-04T14:01:14.798Z</time></trkpt><trkpt lat="42.0958999" lon="12.912042"><ele>572.2</ele><time>2026-04-04T14:01:15.798Z</time></trkpt><trkpt lat="42.0958979" lon="12.911902"><ele>567.0</ele><time>2026-04-04T14:01:16.798Z</time></trkpt><trkpt lat="42.0958947" lon="12.9117572"><ele>565.0</ele><time>2026-04-04T14:01:17.798Z</time></trkpt><trkpt lat="42.0958791" lon="12.9115993"><ele>563.0</ele><time>2026-04-04T14:01:18.798Z</time></trkpt><trkpt lat="42.0958364" lon="12.9114415"><ele>561.0</ele><time>2026-04-04T14:01:19.798Z</time></trkpt><trkpt lat="42.0957892" lon="12.9112892"><ele>559.0</ele><time>2026-04-04T14:01:20.798Z</time></trkpt><trkpt lat="42.0957297" lon="12.9111345"><ele>564.5</ele><time>2026-04-04T14:01:21.798Z</time></trkpt><trkpt lat="42.0956698" lon="12.9109797"><ele>570.0</ele><time>2026-04-04T14:01:22.798Z</time></trkpt><trkpt lat="42.0956111" lon="12.9108243"><ele>575.5</ele><time>2026-04-04T14:01:23.797Z</time></trkpt><trkpt lat="42.0955562" lon="12.9106701"><ele>581.0</ele><time>2026-04-04T14:01:24.798Z</time></trkpt><trkpt lat="42.0955063" lon="12.9105186"><ele>581.0</ele><time>2026-04-04T14:01:25.797Z</time></trkpt><trkpt lat="42.0954613" lon="12.9103709"><ele>581.0</ele><time>2026-04-04T14:01:26.798Z</time></trkpt><trkpt lat="42.0954301" lon="12.9102107"><ele>581.0</ele><time>2026-04-04T14:01:27.798Z</time></trkpt><trkpt lat="42.0954288" lon="12.910039"><ele>581.0</ele><time>2026-04-04T14:01:28.798Z</time></trkpt><trkpt lat="42.0954658" lon="12.9098644"><ele>580.75</ele><time>2026-04-04T14:01:29.798Z</time></trkpt><trkpt lat="42.0955253" lon="12.909693"><ele>580.5</ele><time>2026-04-04T14:01:30.798Z</time></trkpt><trkpt lat="42.0955907" lon="12.9095173"><ele>580.25</ele><time>2026-04-04T14:01:31.798Z</time></trkpt><trkpt lat="42.0956594" lon="12.9093376"><ele>580.0</ele><time>2026-04-04T14:01:32.798Z</time></trkpt><trkpt lat="42.0957246" lon="12.9091567"><ele>572.5</ele><time>2026-04-04T14:01:33.798Z</time></trkpt><trkpt lat="42.095789" lon="12.908978"><ele>565.0</ele><time>2026-04-04T14:01:34.797Z</time></trkpt><trkpt lat="42.0958386" lon="12.9088006"><ele>557.5</ele><time>2026-04-04T14:01:35.798Z</time></trkpt><trkpt lat="42.0958731" lon="12.9086206"><ele>550.0</ele><time>2026-04-04T14:01:36.798Z</time></trkpt><trkpt lat="42.0958979" lon="12.9084458"><ele>549.75</ele><time>2026-04-04T14:01:37.798Z</time></trkpt><trkpt lat="42.0959001" lon="12.9082693"><ele>549.5</ele><time>2026-04-04T14:01:38.798Z</time></trkpt><trkpt lat="42.0958791" lon="12.9080885"><ele>549.25</ele><time>2026-04-04T14:01:39.797Z</time></trkpt><trkpt lat="42.0958361" lon="12.9079121"><ele>549.0</ele><time>2026-04-04T14:01:40.798Z</time></trkpt><trkpt lat="42.0957898" lon="12.9077279"><ele>546.0</ele><time>2026-04-04T14:01:41.798Z</time></trkpt><trkpt lat="42.095747" lon="12.9075417"><ele>543.0</ele><time>2026-04-04T14:01:42.798Z</time></trkpt><trkpt lat="42.0957015" lon="12.9073518"><ele>540.0</ele><time>2026-04-04T14:01:43.797Z</time></trkpt><trkpt lat="42.0956553" lon="12.9071642"><ele>537.0</ele><time>2026-04-04T14:01:44.797Z</time></trkpt><trkpt lat="42.0956049" lon="12.9069758"><ele>537.0</ele><time>2026-04-04T14:01:45.798Z</time></trkpt><trkpt lat="42.0955569" lon="12.9067837"><ele>537.0</ele><time>2026-04-04T14:01:46.798Z</time></trkpt><trkpt lat="42.0955091" lon="12.9065999"><ele>537.0</ele><time>2026-04-04T14:01:47.798Z</time></trkpt><trkpt lat="42.0954451" lon="12.9064297"><ele>537.0</ele><time>2026-04-04T14:01:48.798Z</time></trkpt><trkpt lat="42.0953628" lon="12.906278"><ele>535.25</ele><time>2026-04-04T14:01:49.798Z</time></trkpt><trkpt lat="42.0952546" lon="12.9061589"><ele>533.5</ele><time>2026-04-04T14:01:50.798Z</time></trkpt><trkpt lat="42.0951286" lon="12.9060645"><ele>531.75</ele><time>2026-04-04T14:01:51.798Z</time></trkpt><trkpt lat="42.0949976" lon="12.905984"><ele>530.0</ele><time>2026-04-04T14:01:52.798Z</time></trkpt><trkpt lat="42.0948557" lon="12.9059079"><ele>530.0</ele><time>2026-04-04T14:01:53.798Z</time></trkpt><trkpt lat="42.0947093" lon="12.9058285"><ele>530.0</ele><time>2026-04-04T14:01:54.798Z</time></trkpt><trkpt lat="42.0945606" lon="12.90575"><ele>530.0</ele><time>2026-04-04T14:01:55.798Z</time></trkpt><trkpt lat="42.0944097" lon="12.905669"><ele>530.0</ele><time>2026-04-04T14:01:56.798Z</time></trkpt><trkpt lat="42.0942579" lon="12.9055905"><ele>530.0</ele><time>2026-04-04T14:01:57.798Z</time></trkpt><trkpt lat="42.0941033" lon="12.9055109"><ele>530.0</ele><time>2026-04-04T14:01:58.798Z</time></trkpt><trkpt lat="42.09395" lon="12.9054267"><ele>528.3333333333333</ele><time>2026-04-04T14:01:59.797Z</time></trkpt><trkpt lat="42.0937923" lon="12.9053436"><ele>526.6666666666666</ele><time>2026-04-04T14:02:00.798Z</time></trkpt><trkpt lat="42.093637" lon="12.9052578"><ele>525.0</ele><time>2026-04-04T14:02:01.798Z</time></trkpt><trkpt lat="42.0934818" lon="12.9051732"><ele>525.0</ele><time>2026-04-04T14:02:02.798Z</time></trkpt><trkpt lat="42.0933284" lon="12.9050846"><ele>525.0</ele><time>2026-04-04T14:02:03.798Z</time></trkpt><trkpt lat="42.0931741" lon="12.9050002"><ele>525.0</ele><time>2026-04-04T14:02:04.798Z</time></trkpt><trkpt lat="42.0930216" lon="12.9049127"><ele>525.0</ele><time>2026-04-04T14:02:05.798Z</time></trkpt><trkpt lat="42.0928667" lon="12.9048172"><ele>525.0</ele><time>2026-04-04T14:02:06.798Z</time></trkpt><trkpt lat="42.0927263" lon="12.9047025"><ele>525.0</ele><time>2026-04-04T14:02:07.797Z</time></trkpt><trkpt lat="42.0925974" lon="12.9045651"><ele>525.0</ele><time>2026-04-04T14:02:08.798Z</time></trkpt><trkpt lat="42.0924709" lon="12.904424"><ele>525.0</ele><time>2026-04-04T14:02:09.798Z</time></trkpt><trkpt lat="42.0923652" lon="12.9042539"><ele>525.0</ele><time>2026-04-04T14:02:10.798Z</time></trkpt><trkpt lat="42.0922507" lon="12.9040885"><ele>522.3333333333334</ele><time>2026-04-04T14:02:11.798Z</time></trkpt><trkpt lat="42.092131" lon="12.9039314"><ele>519.6666666666667</ele><time>2026-04-04T14:02:12.798Z</time></trkpt><trkpt lat="42.0920025" lon="12.903792"><ele>517.0</ele><time>2026-04-04T14:02:13.797Z</time></trkpt><trkpt lat="42.0918592" lon="12.9036656"><ele>517.0</ele><time>2026-04-04T14:02:14.798Z</time></trkpt><trkpt lat="42.0917117" lon="12.9035514"><ele>517.0</ele><time>2026-04-04T14:02:15.797Z</time></trkpt><trkpt lat="42.0915612" lon="12.9034504"><ele>517.0</ele><time>2026-04-04T14:02:16.798Z</time></trkpt><trkpt lat="42.0914103" lon="12.9033559"><ele>520.3333333333334</ele><time>2026-04-04T14:02:17.798Z</time></trkpt><trkpt lat="42.0912564" lon="12.9032681"><ele>523.6666666666666</ele><time>2026-04-04T14:02:18.798Z</time></trkpt><trkpt lat="42.0910956" lon="12.9032059"><ele>527.0</ele><time>2026-04-04T14:02:19.797Z</time></trkpt><trkpt lat="42.090931" lon="12.9031751"><ele>527.0</ele><time>2026-04-04T14:02:20.798Z</time></trkpt><trkpt lat="42.0907659" lon="12.9031522"><ele>527.0</ele><time>2026-04-04T14:02:21.798Z</time></trkpt><trkpt lat="42.0906017" lon="12.9031273"><ele>527.0</ele><time>2026-04-04T14:02:22.798Z</time></trkpt><trkpt lat="42.0904384" lon="12.9030999"><ele>523.6666666666666</ele><time>2026-04-04T14:02:23.798Z</time></trkpt><trkpt lat="42.0902796" lon="12.9030697"><ele>520.3333333333334</ele><time>2026-04-04T14:02:24.798Z</time></trkpt><trkpt lat="42.0901212" lon="12.9030348"><ele>517.0</ele><time>2026-04-04T14:02:25.798Z</time></trkpt><trkpt lat="42.0899637" lon="12.9029987"><ele>517.6666666666667</ele><time>2026-04-04T14:02:26.798Z</time></trkpt><trkpt lat="42.0898092" lon="12.9029593"><ele>518.3333333333334</ele><time>2026-04-04T14:02:27.798Z</time></trkpt><trkpt lat="42.0896544" lon="12.9029259"><ele>519.0</ele><time>2026-04-04T14:02:28.798Z</time></trkpt><trkpt lat="42.0895009" lon="12.9029133"><ele>519.0</ele><time>2026-04-04T14:02:29.798Z</time></trkpt><trkpt lat="42.0893459" lon="12.9029169"><ele>519.0</ele><time>2026-04-04T14:02:30.798Z</time></trkpt><trkpt lat="42.0891936" lon="12.9029445"><ele>519.0</ele><time>2026-04-04T14:02:31.798Z</time></trkpt><trkpt lat="42.0890451" lon="12.9029969"><ele>518.25</ele><time>2026-04-04T14:02:32.798Z</time></trkpt><trkpt lat="42.0889073" lon="12.9030644"><ele>517.5</ele><time>2026-04-04T14:02:33.797Z</time></trkpt><trkpt lat="42.0887744" lon="12.9031176"><ele>516.75</ele><time>2026-04-04T14:02:34.798Z</time></trkpt><trkpt lat="42.0886422" lon="12.9031504"><ele>516.0</ele><time>2026-04-04T14:02:35.798Z</time></trkpt><trkpt lat="42.0885184" lon="12.9031364"><ele>516.0</ele><time>2026-04-04T14:02:36.798Z</time></trkpt><trkpt lat="42.0884003" lon="12.9030726"><ele>516.0</ele><time>2026-04-04T14:02:37.798Z</time></trkpt><trkpt lat="42.088285" lon="12.9029651"><ele>516.0</ele><time>2026-04-04T14:02:38.798Z</time></trkpt><trkpt lat="42.0881538" lon="12.9028463"><ele>516.0</ele><time>2026-04-04T14:02:39.798Z</time></trkpt><trkpt lat="42.0880199" lon="12.9027204"><ele>516.6666666666666</ele><time>2026-04-04T14:02:40.798Z</time></trkpt><trkpt lat="42.087883" lon="12.902592"><ele>517.3333333333333</ele><time>2026-04-04T14:02:41.798Z</time></trkpt><trkpt lat="42.0877355" lon="12.9024779"><ele>518.0</ele><time>2026-04-04T14:02:42.798Z</time></trkpt><trkpt lat="42.0875834" lon="12.9023795"><ele>519.6666666666666</ele><time>2026-04-04T14:02:43.798Z</time></trkpt><trkpt lat="42.0874311" lon="12.9022896"><ele>521.3333333333334</ele><time>2026-04-04T14:02:44.798Z</time></trkpt><trkpt lat="42.0872833" lon="12.9021759"><ele>523.0</ele><time>2026-04-04T14:02:45.798Z</time></trkpt><trkpt lat="42.0871468" lon="12.9020423"><ele>519.6666666666667</ele><time>2026-04-04T14:02:46.798Z</time></trkpt><trkpt lat="42.0870118" lon="12.9019093"><ele>516.3333333333334</ele><time>2026-04-04T14:02:47.798Z</time></trkpt><trkpt lat="42.0868858" lon="12.9017812"><ele>513.0</ele><time>2026-04-04T14:02:48.798Z</time></trkpt><trkpt lat="42.0867739" lon="12.9016499"><ele>513.0</ele><time>2026-04-04T14:02:49.798Z</time></trkpt><trkpt lat="42.0866872" lon="12.901499"><ele>513.0</ele><time>2026-04-04T14:02:50.798Z</time></trkpt><trkpt lat="42.0866304" lon="12.9013188"><ele>513.0</ele><time>2026-04-04T14:02:51.798Z</time></trkpt><trkpt lat="42.0865983" lon="12.9011214"><ele>513.0</ele><time>2026-04-04T14:02:52.798Z</time></trkpt><trkpt lat="42.0865952" lon="12.9009311"><ele>510.5</ele><time>2026-04-04T14:02:53.798Z</time></trkpt><trkpt lat="42.0866012" lon="12.9007556"><ele>508.0</ele><time>2026-04-04T14:02:54.798Z</time></trkpt><trkpt lat="42.0865926" lon="12.9005994"><ele>505.5</ele><time>2026-04-04T14:02:55.798Z</time></trkpt><trkpt lat="42.0865536" lon="12.9004686"><ele>503.0</ele><time>2026-04-04T14:02:56.798Z</time></trkpt><trkpt lat="42.0864733" lon="12.9003726"><ele>503.0</ele><time>2026-04-04T14:02:57.798Z</time></trkpt><trkpt lat="42.0863664" lon="12.900319"><ele>503.0</ele><time>2026-04-04T14:02:58.798Z</time></trkpt><trkpt lat="42.0862604" lon="12.900271"><ele>503.0</ele><time>2026-04-04T14:02:59.798Z</time></trkpt><trkpt lat="42.0861137" lon="12.9002341"><ele>503.0</ele><time>2026-04-04T14:03:00.798Z</time></trkpt><trkpt lat="42.0859732" lon="12.9002016"><ele>503.0</ele><time>2026-04-04T14:03:01.798Z</time></trkpt><trkpt lat="42.0858298" lon="12.9001742"><ele>503.0</ele><time>2026-04-04T14:03:02.798Z</time></trkpt><trkpt lat="42.0856877" lon="12.9001435"><ele>503.0</ele><time>2026-04-04T14:03:03.798Z</time></trkpt><trkpt lat="42.0855522" lon="12.9001258"><ele>503.0</ele><time>2026-04-04T14:03:04.798Z</time></trkpt><trkpt lat="42.0854309" lon="12.9001208"><ele>504.25</ele><time>2026-04-04T14:03:05.797Z</time></trkpt><trkpt lat="42.0853348" lon="12.9002057"><ele>505.5</ele><time>2026-04-04T14:03:06.798Z</time></trkpt><trkpt lat="42.0852514" lon="12.9003111"><ele>506.75</ele><time>2026-04-04T14:03:07.798Z</time></trkpt><trkpt lat="42.0851718" lon="12.9004422"><ele>508.0</ele><time>2026-04-04T14:03:08.798Z</time></trkpt><trkpt lat="42.0850727" lon="12.9005539"><ele>508.0</ele><time>2026-04-04T14:03:09.797Z</time></trkpt><trkpt lat="42.0849588" lon="12.9006349"><ele>508.0</ele><time>2026-04-04T14:03:10.798Z</time></trkpt><trkpt lat="42.084835" lon="12.9006791"><ele>508.0</ele><time>2026-04-04T14:03:11.798Z</time></trkpt><trkpt lat="42.0847097" lon="12.9006671"><ele>508.0</ele><time>2026-04-04T14:03:12.798Z</time></trkpt><trkpt lat="42.0845818" lon="12.9006037"><ele>507.33333333333337</ele><time>2026-04-04T14:03:13.798Z</time></trkpt><trkpt lat="42.0844436" lon="12.9005296"><ele>506.66666666666663</ele><time>2026-04-04T14:03:14.798Z</time></trkpt><trkpt lat="42.0842879" lon="12.9004676"><ele>506.0</ele><time>2026-04-04T14:03:15.798Z</time></trkpt><trkpt lat="42.0841276" lon="12.9004251"><ele>507.0</ele><time>2026-04-04T14:03:16.798Z</time></trkpt><trkpt lat="42.0839602" lon="12.9004036"><ele>508.0</ele><time>2026-04-04T14:03:17.798Z</time></trkpt><trkpt lat="42.0837924" lon="12.9004019"><ele>509.0</ele><time>2026-04-04T14:03:18.798Z</time></trkpt><trkpt lat="42.0836341" lon="12.9004296"><ele>509.0</ele><time>2026-04-04T14:03:19.798Z</time></trkpt><trkpt lat="42.0834855" lon="12.9004877"><ele>509.0</ele><time>2026-04-04T14:03:20.797Z</time></trkpt><trkpt lat="42.0833405" lon="12.9005513"><ele>509.0</ele><time>2026-04-04T14:03:21.798Z</time></trkpt><trkpt lat="42.0832003" lon="12.9006227"><ele>507.5</ele><time>2026-04-04T14:03:22.798Z</time></trkpt><trkpt lat="42.0830964" lon="12.9007482"><ele>506.0</ele><time>2026-04-04T14:03:23.797Z</time></trkpt><trkpt lat="42.0830128" lon="12.900887"><ele>504.5</ele><time>2026-04-04T14:03:24.798Z</time></trkpt><trkpt lat="42.0829274" lon="12.9010104"><ele>503.0</ele><time>2026-04-04T14:03:25.798Z</time></trkpt><trkpt lat="42.0828316" lon="12.9011211"><ele>503.0</ele><time>2026-04-04T14:03:26.798Z</time></trkpt><trkpt lat="42.0826821" lon="12.9011855"><ele>503.0</ele><time>2026-04-04T14:03:27.798Z</time></trkpt><trkpt lat="42.0825448" lon="12.9012622"><ele>503.0</ele><time>2026-04-04T14:03:28.798Z</time></trkpt><trkpt lat="42.0824067" lon="12.9013236"><ele>503.5</ele><time>2026-04-04T14:03:29.797Z</time></trkpt><trkpt lat="42.0822765" lon="12.9013923"><ele>504.0</ele><time>2026-04-04T14:03:30.798Z</time></trkpt><trkpt lat="42.0821543" lon="12.9014554"><ele>504.5</ele><time>2026-04-04T14:03:31.798Z</time></trkpt><trkpt lat="42.0820319" lon="12.9014893"><ele>505.0</ele><time>2026-04-04T14:03:32.798Z</time></trkpt><trkpt lat="42.0819074" lon="12.901479"><ele>505.0</ele><time>2026-04-04T14:03:33.798Z</time></trkpt><trkpt lat="42.0817762" lon="12.9014358"><ele>505.0</ele><time>2026-04-04T14:03:34.798Z</time></trkpt><trkpt lat="42.0816442" lon="12.9014041"><ele>505.0</ele><time>2026-04-04T14:03:35.798Z</time></trkpt><trkpt lat="42.081518" lon="12.9014072"><ele>505.0</ele><time>2026-04-04T14:03:36.798Z</time></trkpt><trkpt lat="42.0814022" lon="12.9014543"><ele>505.75</ele><time>2026-04-04T14:03:37.798Z</time></trkpt><trkpt lat="42.0813039" lon="12.9015596"><ele>506.5</ele><time>2026-04-04T14:03:38.798Z</time></trkpt><trkpt lat="42.0812331" lon="12.901705"><ele>507.25</ele><time>2026-04-04T14:03:39.798Z</time></trkpt><trkpt lat="42.0811728" lon="12.9018563"><ele>508.0</ele><time>2026-04-04T14:03:40.798Z</time></trkpt><trkpt lat="42.0811165" lon="12.9019905"><ele>503.2</ele><time>2026-04-04T14:03:41.797Z</time></trkpt><trkpt lat="42.0810593" lon="12.902102"><ele>498.4</ele><time>2026-04-04T14:03:42.798Z</time></trkpt><trkpt lat="42.080987" lon="12.9021724"><ele>493.59999999999997</ele><time>2026-04-04T14:03:43.798Z</time></trkpt><trkpt lat="42.0809006" lon="12.9021845"><ele>488.79999999999995</ele><time>2026-04-04T14:03:44.798Z</time></trkpt><trkpt lat="42.0808022" lon="12.902132"><ele>484.0</ele><time>2026-04-04T14:03:45.798Z</time></trkpt><trkpt lat="42.0807057" lon="12.9020313"><ele>485.75</ele><time>2026-04-04T14:03:46.797Z</time></trkpt><trkpt lat="42.0805933" lon="12.901912"><ele>487.5</ele><time>2026-04-04T14:03:47.798Z</time></trkpt><trkpt lat="42.080477" lon="12.9017783"><ele>489.25</ele><time>2026-04-04T14:03:48.798Z</time></trkpt><trkpt lat="42.0803577" lon="12.9016488"><ele>491.0</ele><time>2026-04-04T14:03:49.798Z</time></trkpt><trkpt lat="42.0802424" lon="12.901517"><ele>491.0</ele><time>2026-04-04T14:03:50.798Z</time></trkpt><trkpt lat="42.0801351" lon="12.9013906"><ele>491.0</ele><time>2026-04-04T14:03:51.798Z</time></trkpt><trkpt lat="42.0800352" lon="12.9012596"><ele>491.0</ele><time>2026-04-04T14:03:52.798Z</time></trkpt><trkpt lat="42.0799397" lon="12.9011218"><ele>491.0</ele><time>2026-04-04T14:03:53.797Z</time></trkpt><trkpt lat="42.0798537" lon="12.9009953"><ele>493.25</ele><time>2026-04-04T14:03:54.798Z</time></trkpt><trkpt lat="42.0797666" lon="12.9008767"><ele>495.5</ele><time>2026-04-04T14:03:55.798Z</time></trkpt><trkpt lat="42.0796655" lon="12.9007939"><ele>497.75</ele><time>2026-04-04T14:03:56.798Z</time></trkpt><trkpt lat="42.0795387" lon="12.9007597"><ele>500.0</ele><time>2026-04-04T14:03:57.798Z</time></trkpt><trkpt lat="42.0793928" lon="12.9007718"><ele>500.0</ele><time>2026-04-04T14:03:58.798Z</time></trkpt><trkpt lat="42.0792313" lon="12.9007974"><ele>500.0</ele><time>2026-04-04T14:03:59.798Z</time></trkpt><trkpt lat="42.0790669" lon="12.9008212"><ele>500.0</ele><time>2026-04-04T14:04:00.798Z</time></trkpt><trkpt lat="42.0789004" lon="12.9008288"><ele>500.3333333333333</ele><time>2026-04-04T14:04:01.798Z</time></trkpt><trkpt lat="42.0787346" lon="12.9008261"><ele>500.66666666666663</ele><time>2026-04-04T14:04:02.798Z</time></trkpt><trkpt lat="42.0785799" lon="12.9008325"><ele>501.0</ele><time>2026-04-04T14:04:03.798Z</time></trkpt><trkpt lat="42.0784343" lon="12.9008566"><ele>501.0</ele><time>2026-04-04T14:04:04.798Z</time></trkpt><trkpt lat="42.0783006" lon="12.9008846"><ele>501.0</ele><time>2026-04-04T14:04:05.798Z</time></trkpt><trkpt lat="42.0781703" lon="12.9009011"><ele>501.0</ele><time>2026-04-04T14:04:06.798Z</time></trkpt><trkpt lat="42.0780455" lon="12.9008959"><ele>501.0</ele><time>2026-04-04T14:04:07.798Z</time></trkpt><trkpt lat="42.0779287" lon="12.9008443"><ele>499.0</ele><time>2026-04-04T14:04:08.798Z</time></trkpt><trkpt lat="42.0778307" lon="12.9007551"><ele>497.0</ele><time>2026-04-04T14:04:09.798Z</time></trkpt><trkpt lat="42.0777436" lon="12.9006396"><ele>495.0</ele><time>2026-04-04T14:04:10.798Z</time></trkpt><trkpt lat="42.0776639" lon="12.9005202"><ele>493.0</ele><time>2026-04-04T14:04:11.798Z</time></trkpt><trkpt lat="42.0775883" lon="12.9003993"><ele>493.0</ele><time>2026-04-04T14:04:12.798Z</time></trkpt><trkpt lat="42.0775092" lon="12.900284"><ele>492.99999999999994</ele><time>2026-04-04T14:04:13.798Z</time></trkpt><trkpt lat="42.0774167" lon="12.9002004"><ele>492.99999999999994</ele><time>2026-04-04T14:04:14.798Z</time></trkpt><trkpt lat="42.0773176" lon="12.9001489"><ele>493.0</ele><time>2026-04-04T14:04:15.798Z</time></trkpt><trkpt lat="42.0772165" lon="12.9001306"><ele>493.0</ele><time>2026-04-04T14:04:16.798Z</time></trkpt><trkpt lat="42.0771114" lon="12.9001484"><ele>495.75</ele><time>2026-04-04T14:04:17.798Z</time></trkpt><trkpt lat="42.0770104" lon="12.9002161"><ele>498.5</ele><time>2026-04-04T14:04:18.798Z</time></trkpt><trkpt lat="42.0769211" lon="12.9003232"><ele>501.25</ele><time>2026-04-04T14:04:19.798Z</time></trkpt><trkpt lat="42.0768461" lon="12.9004569"><ele>504.0</ele><time>2026-04-04T14:04:20.798Z</time></trkpt><trkpt lat="42.0767821" lon="12.9006158"><ele>504.0</ele><time>2026-04-04T14:04:21.798Z</time></trkpt><trkpt lat="42.0767433" lon="12.9007871"><ele>504.0</ele><time>2026-04-04T14:04:22.798Z</time></trkpt><trkpt lat="42.0767206" lon="12.9009701"><ele>504.0</ele><time>2026-04-04T14:04:23.798Z</time></trkpt><trkpt lat="42.0767157" lon="12.9011446"><ele>504.0</ele><time>2026-04-04T14:04:24.798Z</time></trkpt><trkpt lat="42.0767248" lon="12.9013134"><ele>500.75</ele><time>2026-04-04T14:04:25.798Z</time></trkpt><trkpt lat="42.0767326" lon="12.901475"><ele>497.5</ele><time>2026-04-04T14:04:26.797Z</time></trkpt><trkpt lat="42.0767188" lon="12.9016268"><ele>494.25</ele><time>2026-04-04T14:04:27.798Z</time></trkpt><trkpt lat="42.0766755" lon="12.9017583"><ele>491.0</ele><time>2026-04-04T14:04:28.798Z</time></trkpt><trkpt lat="42.0765845" lon="12.9018714"><ele>486.0</ele><time>2026-04-04T14:04:29.797Z</time></trkpt><trkpt lat="42.0764693" lon="12.9019245"><ele>481.0</ele><time>2026-04-04T14:04:30.797Z</time></trkpt><trkpt lat="42.076339" lon="12.9019397"><ele>476.0</ele><time>2026-04-04T14:04:31.797Z</time></trkpt><trkpt lat="42.0762037" lon="12.9019403"><ele>471.0</ele><time>2026-04-04T14:04:32.798Z</time></trkpt><trkpt lat="42.0760636" lon="12.9019281"><ele>471.0</ele><time>2026-04-04T14:04:33.798Z</time></trkpt><trkpt lat="42.0759191" lon="12.9019048"><ele>471.0</ele><time>2026-04-04T14:04:34.798Z</time></trkpt><trkpt lat="42.0757797" lon="12.9018818"><ele>471.0</ele><time>2026-04-04T14:04:35.797Z</time></trkpt><trkpt lat="42.0756406" lon="12.9018708"><ele>471.0</ele><time>2026-04-04T14:04:36.798Z</time></trkpt><trkpt lat="42.0755064" lon="12.9018761"><ele>471.25</ele><time>2026-04-04T14:04:37.798Z</time></trkpt><trkpt lat="42.075381" lon="12.9019074"><ele>471.5</ele><time>2026-04-04T14:04:38.798Z</time></trkpt><trkpt lat="42.0752689" lon="12.9019612"><ele>471.75</ele><time>2026-04-04T14:04:39.798Z</time></trkpt><trkpt lat="42.075172" lon="12.9020132"><ele>472.0</ele><time>2026-04-04T14:04:40.798Z</time></trkpt><trkpt lat="42.0750752" lon="12.9020609"><ele>472.0</ele><time>2026-04-04T14:04:41.798Z</time></trkpt><trkpt lat="42.0749824" lon="12.9020931"><ele>472.00000000000006</ele><time>2026-04-04T14:04:42.798Z</time></trkpt><trkpt lat="42.0748894" lon="12.9021038"><ele>472.00000000000006</ele><time>2026-04-04T14:04:43.798Z</time></trkpt><trkpt lat="42.0747991" lon="12.9020883"><ele>472.0</ele><time>2026-04-04T14:04:44.798Z</time></trkpt><trkpt lat="42.0747117" lon="12.9020593"><ele>472.0</ele><time>2026-04-04T14:04:45.798Z</time></trkpt><trkpt lat="42.0746343" lon="12.9020196"><ele>457.0</ele><time>2026-04-04T14:04:46.798Z</time></trkpt><trkpt lat="42.0745479" lon="12.9019286"><ele>457.0</ele><time>2026-04-04T14:04:48.798Z</time></trkpt></trkseg></trk></gpx>